<?xml version="1.0" encoding="UTF-8" standalone="no" ?>
<gpx xmlns="http://www.topografix.com/GPX/1/1" xmlns:xsi="http://www.w3.org/2001/XMLSchema-instance" xsi:schemaLocation="http://www.topografix.com/GPX/1/1 http://www.topografix.com/GPX/1/1/gpx.xsd" version="1.1" creator="VisuGPX - https://www.visugpx.com">
  <metadata>
    <name>footing Chassagny</name>
    <desc><![CDATA[footing a Chassagny]]></desc>
  </metadata>
  <trk>
    <name><![CDATA[2011-06-07 19:45 Chassagny]]></name>
    <desc><![CDATA[]]></desc>
    <trkseg>
      <trkpt lat="45.60676" lon="4.70786">
        <ele>379.2</ele>
        <time>2011-06-07T17:45:35Z</time>
      </trkpt>
      <trkpt lat="45.60676" lon="4.70786">
        <ele>379.2</ele>
        <time>2011-06-07T17:45:35Z</time>
      </trkpt>
      <trkpt lat="45.60676" lon="4.70786">
        <ele>379.2</ele>
        <time>2011-06-07T17:45:36Z</time>
      </trkpt>
      <trkpt lat="45.60677" lon="4.70794">
        <ele>375.5</ele>
        <time>2011-06-07T17:45:37Z</time>
      </trkpt>
      <trkpt lat="45.60679" lon="4.70802">
        <ele>371.5</ele>
        <time>2011-06-07T17:45:38Z</time>
      </trkpt>
      <trkpt lat="45.60674" lon="4.70807">
        <ele>367.4</ele>
        <time>2011-06-07T17:45:53Z</time>
      </trkpt>
      <trkpt lat="45.6067" lon="4.70813">
        <ele>365.5</ele>
        <time>2011-06-07T17:45:55Z</time>
      </trkpt>
      <trkpt lat="45.60667" lon="4.70822">
        <ele>367.5</ele>
        <time>2011-06-07T17:45:58Z</time>
      </trkpt>
      <trkpt lat="45.60664" lon="4.70828">
        <ele>371</ele>
        <time>2011-06-07T17:46:00Z</time>
      </trkpt>
      <trkpt lat="45.60661" lon="4.70835">
        <ele>372</ele>
        <time>2011-06-07T17:46:03Z</time>
      </trkpt>
      <trkpt lat="45.6066" lon="4.70843">
        <ele>373.2</ele>
        <time>2011-06-07T17:46:06Z</time>
      </trkpt>
      <trkpt lat="45.60658" lon="4.70852">
        <ele>370.9</ele>
        <time>2011-06-07T17:46:08Z</time>
      </trkpt>
      <trkpt lat="45.60658" lon="4.70862">
        <ele>370.2</ele>
        <time>2011-06-07T17:46:10Z</time>
      </trkpt>
      <trkpt lat="45.60658" lon="4.70873">
        <ele>368.8</ele>
        <time>2011-06-07T17:46:12Z</time>
      </trkpt>
      <trkpt lat="45.60655" lon="4.70882">
        <ele>367.4</ele>
        <time>2011-06-07T17:46:15Z</time>
      </trkpt>
      <trkpt lat="45.60654" lon="4.70889">
        <ele>366.5</ele>
        <time>2011-06-07T17:46:17Z</time>
      </trkpt>
      <trkpt lat="45.60652" lon="4.709">
        <ele>365.5</ele>
        <time>2011-06-07T17:46:19Z</time>
      </trkpt>
      <trkpt lat="45.6065" lon="4.70909">
        <ele>364.5</ele>
        <time>2011-06-07T17:46:21Z</time>
      </trkpt>
      <trkpt lat="45.60649" lon="4.70918">
        <ele>363.8</ele>
        <time>2011-06-07T17:46:23Z</time>
      </trkpt>
      <trkpt lat="45.60648" lon="4.70925">
        <ele>363.1</ele>
        <time>2011-06-07T17:46:25Z</time>
      </trkpt>
      <trkpt lat="45.60647" lon="4.70933">
        <ele>362.8</ele>
        <time>2011-06-07T17:46:27Z</time>
      </trkpt>
      <trkpt lat="45.60651" lon="4.70943">
        <ele>361.4</ele>
        <time>2011-06-07T17:46:30Z</time>
      </trkpt>
      <trkpt lat="45.60654" lon="4.70953">
        <ele>359.8</ele>
        <time>2011-06-07T17:46:33Z</time>
      </trkpt>
      <trkpt lat="45.60656" lon="4.7096">
        <ele>358.8</ele>
        <time>2011-06-07T17:46:35Z</time>
      </trkpt>
      <trkpt lat="45.60662" lon="4.70965">
        <ele>358.4</ele>
        <time>2011-06-07T17:46:38Z</time>
      </trkpt>
      <trkpt lat="45.60666" lon="4.70973">
        <ele>357.3</ele>
        <time>2011-06-07T17:46:40Z</time>
      </trkpt>
      <trkpt lat="45.6067" lon="4.70979">
        <ele>356.7</ele>
        <time>2011-06-07T17:46:44Z</time>
      </trkpt>
      <trkpt lat="45.60674" lon="4.70982">
        <ele>356.6</ele>
        <time>2011-06-07T17:46:47Z</time>
      </trkpt>
      <trkpt lat="45.60683" lon="4.70977">
        <ele>357.3</ele>
        <time>2011-06-07T17:46:49Z</time>
      </trkpt>
      <trkpt lat="45.6069" lon="4.70977">
        <ele>357.6</ele>
        <time>2011-06-07T17:46:51Z</time>
      </trkpt>
      <trkpt lat="45.60692" lon="4.70984">
        <ele>358.1</ele>
        <time>2011-06-07T17:46:52Z</time>
      </trkpt>
      <trkpt lat="45.60696" lon="4.7099">
        <ele>356.4</ele>
        <time>2011-06-07T17:46:55Z</time>
      </trkpt>
      <trkpt lat="45.607" lon="4.70997">
        <ele>355.2</ele>
        <time>2011-06-07T17:46:58Z</time>
      </trkpt>
      <trkpt lat="45.60704" lon="4.71001">
        <ele>355.6</ele>
        <time>2011-06-07T17:46:59Z</time>
      </trkpt>
      <trkpt lat="45.60709" lon="4.71006">
        <ele>355</ele>
        <time>2011-06-07T17:47:02Z</time>
      </trkpt>
      <trkpt lat="45.60714" lon="4.71004">
        <ele>355.8</ele>
        <time>2011-06-07T17:47:03Z</time>
      </trkpt>
      <trkpt lat="45.60718" lon="4.7101">
        <ele>356.3</ele>
        <time>2011-06-07T17:47:05Z</time>
      </trkpt>
      <trkpt lat="45.60722" lon="4.71016">
        <ele>356.9</ele>
        <time>2011-06-07T17:47:07Z</time>
      </trkpt>
      <trkpt lat="45.60727" lon="4.71021">
        <ele>357.9</ele>
        <time>2011-06-07T17:47:10Z</time>
      </trkpt>
      <trkpt lat="45.60731" lon="4.71026">
        <ele>356.8</ele>
        <time>2011-06-07T17:47:12Z</time>
      </trkpt>
      <trkpt lat="45.60736" lon="4.71032">
        <ele>358</ele>
        <time>2011-06-07T17:47:14Z</time>
      </trkpt>
      <trkpt lat="45.60741" lon="4.71037">
        <ele>357.4</ele>
        <time>2011-06-07T17:47:16Z</time>
      </trkpt>
      <trkpt lat="45.60746" lon="4.71042">
        <ele>356.4</ele>
        <time>2011-06-07T17:47:18Z</time>
      </trkpt>
      <trkpt lat="45.60752" lon="4.71049">
        <ele>355.6</ele>
        <time>2011-06-07T17:47:21Z</time>
      </trkpt>
      <trkpt lat="45.60754" lon="4.71056">
        <ele>355.4</ele>
        <time>2011-06-07T17:47:23Z</time>
      </trkpt>
      <trkpt lat="45.60758" lon="4.71061">
        <ele>355.4</ele>
        <time>2011-06-07T17:47:25Z</time>
      </trkpt>
      <trkpt lat="45.60762" lon="4.71065">
        <ele>356.1</ele>
        <time>2011-06-07T17:47:27Z</time>
      </trkpt>
      <trkpt lat="45.60765" lon="4.71071">
        <ele>356.7</ele>
        <time>2011-06-07T17:47:31Z</time>
      </trkpt>
      <trkpt lat="45.60768" lon="4.71077">
        <ele>356</ele>
        <time>2011-06-07T17:47:33Z</time>
      </trkpt>
      <trkpt lat="45.60773" lon="4.71083">
        <ele>356.6</ele>
        <time>2011-06-07T17:47:35Z</time>
      </trkpt>
      <trkpt lat="45.60779" lon="4.71091">
        <ele>356.7</ele>
        <time>2011-06-07T17:47:38Z</time>
      </trkpt>
      <trkpt lat="45.6078" lon="4.71098">
        <ele>357.4</ele>
        <time>2011-06-07T17:47:40Z</time>
      </trkpt>
      <trkpt lat="45.60784" lon="4.71106">
        <ele>358.4</ele>
        <time>2011-06-07T17:47:43Z</time>
      </trkpt>
      <trkpt lat="45.60789" lon="4.7111">
        <ele>359</ele>
        <time>2011-06-07T17:47:45Z</time>
      </trkpt>
      <trkpt lat="45.60796" lon="4.71114">
        <ele>359.4</ele>
        <time>2011-06-07T17:47:48Z</time>
      </trkpt>
      <trkpt lat="45.60801" lon="4.71118">
        <ele>358.9</ele>
        <time>2011-06-07T17:47:50Z</time>
      </trkpt>
      <trkpt lat="45.60807" lon="4.71122">
        <ele>359.4</ele>
        <time>2011-06-07T17:47:53Z</time>
      </trkpt>
      <trkpt lat="45.6081" lon="4.71128">
        <ele>360.2</ele>
        <time>2011-06-07T17:47:56Z</time>
      </trkpt>
      <trkpt lat="45.60814" lon="4.71136">
        <ele>360.2</ele>
        <time>2011-06-07T17:47:59Z</time>
      </trkpt>
      <trkpt lat="45.60819" lon="4.71142">
        <ele>359.8</ele>
        <time>2011-06-07T17:48:01Z</time>
      </trkpt>
      <trkpt lat="45.60823" lon="4.71147">
        <ele>360.3</ele>
        <time>2011-06-07T17:48:03Z</time>
      </trkpt>
      <trkpt lat="45.60828" lon="4.71152">
        <ele>359.8</ele>
        <time>2011-06-07T17:48:05Z</time>
      </trkpt>
      <trkpt lat="45.60833" lon="4.71155">
        <ele>359.6</ele>
        <time>2011-06-07T17:48:07Z</time>
      </trkpt>
      <trkpt lat="45.60834" lon="4.71163">
        <ele>355.6</ele>
        <time>2011-06-07T17:48:08Z</time>
      </trkpt>
      <trkpt lat="45.60837" lon="4.71168">
        <ele>355.2</ele>
        <time>2011-06-07T17:48:10Z</time>
      </trkpt>
      <trkpt lat="45.60841" lon="4.71172">
        <ele>355.2</ele>
        <time>2011-06-07T17:48:12Z</time>
      </trkpt>
      <trkpt lat="45.60846" lon="4.71178">
        <ele>355</ele>
        <time>2011-06-07T17:48:15Z</time>
      </trkpt>
      <trkpt lat="45.60851" lon="4.71185">
        <ele>355.3</ele>
        <time>2011-06-07T17:48:18Z</time>
      </trkpt>
      <trkpt lat="45.60855" lon="4.7119">
        <ele>355.9</ele>
        <time>2011-06-07T17:48:22Z</time>
      </trkpt>
      <trkpt lat="45.60861" lon="4.71195">
        <ele>356.6</ele>
        <time>2011-06-07T17:48:25Z</time>
      </trkpt>
      <trkpt lat="45.60865" lon="4.71198">
        <ele>356</ele>
        <time>2011-06-07T17:48:27Z</time>
      </trkpt>
      <trkpt lat="45.60869" lon="4.71201">
        <ele>356.2</ele>
        <time>2011-06-07T17:48:29Z</time>
      </trkpt>
      <trkpt lat="45.60873" lon="4.71205">
        <ele>357.1</ele>
        <time>2011-06-07T17:48:32Z</time>
      </trkpt>
      <trkpt lat="45.60879" lon="4.71204">
        <ele>357.3</ele>
        <time>2011-06-07T17:48:35Z</time>
      </trkpt>
      <trkpt lat="45.60884" lon="4.71208">
        <ele>358.3</ele>
        <time>2011-06-07T17:48:38Z</time>
      </trkpt>
      <trkpt lat="45.60889" lon="4.71212">
        <ele>358.3</ele>
        <time>2011-06-07T17:48:41Z</time>
      </trkpt>
      <trkpt lat="45.60894" lon="4.71216">
        <ele>360.2</ele>
        <time>2011-06-07T17:48:43Z</time>
      </trkpt>
      <trkpt lat="45.60898" lon="4.71219">
        <ele>359.9</ele>
        <time>2011-06-07T17:48:45Z</time>
      </trkpt>
      <trkpt lat="45.60903" lon="4.71223">
        <ele>360.2</ele>
        <time>2011-06-07T17:48:47Z</time>
      </trkpt>
      <trkpt lat="45.6091" lon="4.71229">
        <ele>361.3</ele>
        <time>2011-06-07T17:48:50Z</time>
      </trkpt>
      <trkpt lat="45.6091" lon="4.71235">
        <ele>362.6</ele>
        <time>2011-06-07T17:48:53Z</time>
      </trkpt>
      <trkpt lat="45.60913" lon="4.71242">
        <ele>367.8</ele>
        <time>2011-06-07T17:48:57Z</time>
      </trkpt>
      <trkpt lat="45.60917" lon="4.71246">
        <ele>370.6</ele>
        <time>2011-06-07T17:49:00Z</time>
      </trkpt>
      <trkpt lat="45.60922" lon="4.71247">
        <ele>369.8</ele>
        <time>2011-06-07T17:49:02Z</time>
      </trkpt>
      <trkpt lat="45.60928" lon="4.71246">
        <ele>369.4</ele>
        <time>2011-06-07T17:49:04Z</time>
      </trkpt>
      <trkpt lat="45.60933" lon="4.71247">
        <ele>370.4</ele>
        <time>2011-06-07T17:49:06Z</time>
      </trkpt>
      <trkpt lat="45.60939" lon="4.71245">
        <ele>370.4</ele>
        <time>2011-06-07T17:49:08Z</time>
      </trkpt>
      <trkpt lat="45.60944" lon="4.71244">
        <ele>370.2</ele>
        <time>2011-06-07T17:49:10Z</time>
      </trkpt>
      <trkpt lat="45.60949" lon="4.71239">
        <ele>372</ele>
        <time>2011-06-07T17:49:13Z</time>
      </trkpt>
      <trkpt lat="45.60956" lon="4.71239">
        <ele>369.5</ele>
        <time>2011-06-07T17:49:15Z</time>
      </trkpt>
      <trkpt lat="45.60962" lon="4.71236">
        <ele>368.6</ele>
        <time>2011-06-07T17:49:17Z</time>
      </trkpt>
      <trkpt lat="45.60967" lon="4.71236">
        <ele>367.5</ele>
        <time>2011-06-07T17:49:19Z</time>
      </trkpt>
      <trkpt lat="45.60972" lon="4.71236">
        <ele>368</ele>
        <time>2011-06-07T17:49:21Z</time>
      </trkpt>
      <trkpt lat="45.60977" lon="4.71236">
        <ele>367.7</ele>
        <time>2011-06-07T17:49:23Z</time>
      </trkpt>
      <trkpt lat="45.60982" lon="4.71236">
        <ele>367.9</ele>
        <time>2011-06-07T17:49:25Z</time>
      </trkpt>
      <trkpt lat="45.60987" lon="4.71236">
        <ele>368.1</ele>
        <time>2011-06-07T17:49:27Z</time>
      </trkpt>
      <trkpt lat="45.60992" lon="4.71237">
        <ele>367.6</ele>
        <time>2011-06-07T17:49:29Z</time>
      </trkpt>
      <trkpt lat="45.60998" lon="4.71237">
        <ele>368.1</ele>
        <time>2011-06-07T17:49:32Z</time>
      </trkpt>
      <trkpt lat="45.61005" lon="4.71237">
        <ele>368.7</ele>
        <time>2011-06-07T17:49:35Z</time>
      </trkpt>
      <trkpt lat="45.6101" lon="4.71236">
        <ele>368.9</ele>
        <time>2011-06-07T17:49:37Z</time>
      </trkpt>
      <trkpt lat="45.61017" lon="4.71234">
        <ele>369</ele>
        <time>2011-06-07T17:49:40Z</time>
      </trkpt>
      <trkpt lat="45.61021" lon="4.71233">
        <ele>369.1</ele>
        <time>2011-06-07T17:49:42Z</time>
      </trkpt>
      <trkpt lat="45.61028" lon="4.71231">
        <ele>369.9</ele>
        <time>2011-06-07T17:49:45Z</time>
      </trkpt>
      <trkpt lat="45.61032" lon="4.71231">
        <ele>370</ele>
        <time>2011-06-07T17:49:47Z</time>
      </trkpt>
      <trkpt lat="45.61038" lon="4.7123">
        <ele>370.9</ele>
        <time>2011-06-07T17:49:50Z</time>
      </trkpt>
      <trkpt lat="45.61043" lon="4.71228">
        <ele>370.2</ele>
        <time>2011-06-07T17:49:52Z</time>
      </trkpt>
      <trkpt lat="45.61048" lon="4.71226">
        <ele>369.9</ele>
        <time>2011-06-07T17:49:54Z</time>
      </trkpt>
      <trkpt lat="45.61054" lon="4.71226">
        <ele>370.3</ele>
        <time>2011-06-07T17:49:57Z</time>
      </trkpt>
      <trkpt lat="45.61059" lon="4.71225">
        <ele>368.4</ele>
        <time>2011-06-07T17:49:59Z</time>
      </trkpt>
      <trkpt lat="45.61066" lon="4.71225">
        <ele>370.2</ele>
        <time>2011-06-07T17:50:02Z</time>
      </trkpt>
      <trkpt lat="45.61072" lon="4.71224">
        <ele>369.1</ele>
        <time>2011-06-07T17:50:05Z</time>
      </trkpt>
      <trkpt lat="45.61077" lon="4.71224">
        <ele>368.3</ele>
        <time>2011-06-07T17:50:07Z</time>
      </trkpt>
      <trkpt lat="45.61084" lon="4.71223">
        <ele>367.5</ele>
        <time>2011-06-07T17:50:10Z</time>
      </trkpt>
      <trkpt lat="45.6109" lon="4.71224">
        <ele>367.3</ele>
        <time>2011-06-07T17:50:13Z</time>
      </trkpt>
      <trkpt lat="45.61097" lon="4.71223">
        <ele>370.2</ele>
        <time>2011-06-07T17:50:17Z</time>
      </trkpt>
      <trkpt lat="45.61101" lon="4.71222">
        <ele>369.9</ele>
        <time>2011-06-07T17:50:19Z</time>
      </trkpt>
      <trkpt lat="45.61106" lon="4.71221">
        <ele>369.7</ele>
        <time>2011-06-07T17:50:21Z</time>
      </trkpt>
      <trkpt lat="45.61111" lon="4.7122">
        <ele>369.6</ele>
        <time>2011-06-07T17:50:23Z</time>
      </trkpt>
      <trkpt lat="45.61116" lon="4.7122">
        <ele>369.8</ele>
        <time>2011-06-07T17:50:25Z</time>
      </trkpt>
      <trkpt lat="45.6112" lon="4.71221">
        <ele>370.9</ele>
        <time>2011-06-07T17:50:27Z</time>
      </trkpt>
      <trkpt lat="45.61126" lon="4.71221">
        <ele>369.8</ele>
        <time>2011-06-07T17:50:29Z</time>
      </trkpt>
      <trkpt lat="45.61131" lon="4.71221">
        <ele>370.1</ele>
        <time>2011-06-07T17:50:31Z</time>
      </trkpt>
      <trkpt lat="45.61138" lon="4.71221">
        <ele>369.4</ele>
        <time>2011-06-07T17:50:34Z</time>
      </trkpt>
      <trkpt lat="45.61143" lon="4.71221">
        <ele>369.7</ele>
        <time>2011-06-07T17:50:36Z</time>
      </trkpt>
      <trkpt lat="45.61148" lon="4.7122">
        <ele>369.5</ele>
        <time>2011-06-07T17:50:38Z</time>
      </trkpt>
      <trkpt lat="45.61153" lon="4.71219">
        <ele>369.5</ele>
        <time>2011-06-07T17:50:40Z</time>
      </trkpt>
      <trkpt lat="45.6116" lon="4.71217">
        <ele>370.2</ele>
        <time>2011-06-07T17:50:43Z</time>
      </trkpt>
      <trkpt lat="45.61164" lon="4.71216">
        <ele>370.7</ele>
        <time>2011-06-07T17:50:45Z</time>
      </trkpt>
      <trkpt lat="45.6117" lon="4.71214">
        <ele>369.7</ele>
        <time>2011-06-07T17:50:47Z</time>
      </trkpt>
      <trkpt lat="45.61175" lon="4.71213">
        <ele>369.3</ele>
        <time>2011-06-07T17:50:49Z</time>
      </trkpt>
      <trkpt lat="45.6118" lon="4.71211">
        <ele>369</ele>
        <time>2011-06-07T17:50:51Z</time>
      </trkpt>
      <trkpt lat="45.61186" lon="4.71209">
        <ele>371.7</ele>
        <time>2011-06-07T17:50:54Z</time>
      </trkpt>
      <trkpt lat="45.61191" lon="4.71205">
        <ele>370.6</ele>
        <time>2011-06-07T17:50:56Z</time>
      </trkpt>
      <trkpt lat="45.61196" lon="4.71203">
        <ele>370</ele>
        <time>2011-06-07T17:50:58Z</time>
      </trkpt>
      <trkpt lat="45.61201" lon="4.71198">
        <ele>369</ele>
        <time>2011-06-07T17:51:00Z</time>
      </trkpt>
      <trkpt lat="45.61207" lon="4.71193">
        <ele>368.3</ele>
        <time>2011-06-07T17:51:02Z</time>
      </trkpt>
      <trkpt lat="45.61213" lon="4.71187">
        <ele>368.3</ele>
        <time>2011-06-07T17:51:04Z</time>
      </trkpt>
      <trkpt lat="45.61218" lon="4.71184">
        <ele>369.5</ele>
        <time>2011-06-07T17:51:07Z</time>
      </trkpt>
      <trkpt lat="45.61222" lon="4.7118">
        <ele>370.1</ele>
        <time>2011-06-07T17:51:09Z</time>
      </trkpt>
      <trkpt lat="45.61227" lon="4.71176">
        <ele>370.5</ele>
        <time>2011-06-07T17:51:11Z</time>
      </trkpt>
      <trkpt lat="45.61232" lon="4.71175">
        <ele>370.3</ele>
        <time>2011-06-07T17:51:13Z</time>
      </trkpt>
      <trkpt lat="45.61234" lon="4.71168">
        <ele>371.2</ele>
        <time>2011-06-07T17:51:15Z</time>
      </trkpt>
      <trkpt lat="45.61238" lon="4.71163">
        <ele>371.6</ele>
        <time>2011-06-07T17:51:18Z</time>
      </trkpt>
      <trkpt lat="45.61242" lon="4.71158">
        <ele>371.5</ele>
        <time>2011-06-07T17:51:20Z</time>
      </trkpt>
      <trkpt lat="45.61246" lon="4.71152">
        <ele>370.2</ele>
        <time>2011-06-07T17:51:22Z</time>
      </trkpt>
      <trkpt lat="45.61251" lon="4.71148">
        <ele>369.2</ele>
        <time>2011-06-07T17:51:24Z</time>
      </trkpt>
      <trkpt lat="45.61256" lon="4.71144">
        <ele>370.1</ele>
        <time>2011-06-07T17:51:27Z</time>
      </trkpt>
      <trkpt lat="45.61262" lon="4.7114">
        <ele>370</ele>
        <time>2011-06-07T17:51:30Z</time>
      </trkpt>
      <trkpt lat="45.61267" lon="4.71137">
        <ele>371</ele>
        <time>2011-06-07T17:51:33Z</time>
      </trkpt>
      <trkpt lat="45.61273" lon="4.71134">
        <ele>372.2</ele>
        <time>2011-06-07T17:51:36Z</time>
      </trkpt>
      <trkpt lat="45.61277" lon="4.71131">
        <ele>372.2</ele>
        <time>2011-06-07T17:51:38Z</time>
      </trkpt>
      <trkpt lat="45.61283" lon="4.71128">
        <ele>372.4</ele>
        <time>2011-06-07T17:51:41Z</time>
      </trkpt>
      <trkpt lat="45.61288" lon="4.71125">
        <ele>372</ele>
        <time>2011-06-07T17:51:43Z</time>
      </trkpt>
      <trkpt lat="45.61292" lon="4.71123">
        <ele>372.3</ele>
        <time>2011-06-07T17:51:45Z</time>
      </trkpt>
      <trkpt lat="45.61296" lon="4.7112">
        <ele>372.2</ele>
        <time>2011-06-07T17:51:47Z</time>
      </trkpt>
      <trkpt lat="45.61301" lon="4.71117">
        <ele>372.4</ele>
        <time>2011-06-07T17:51:49Z</time>
      </trkpt>
      <trkpt lat="45.61305" lon="4.71113">
        <ele>372.5</ele>
        <time>2011-06-07T17:51:51Z</time>
      </trkpt>
      <trkpt lat="45.61311" lon="4.7111">
        <ele>373.6</ele>
        <time>2011-06-07T17:51:54Z</time>
      </trkpt>
      <trkpt lat="45.61317" lon="4.71109">
        <ele>374</ele>
        <time>2011-06-07T17:51:57Z</time>
      </trkpt>
      <trkpt lat="45.61321" lon="4.71104">
        <ele>373.3</ele>
        <time>2011-06-07T17:51:59Z</time>
      </trkpt>
      <trkpt lat="45.61327" lon="4.71101">
        <ele>374</ele>
        <time>2011-06-07T17:52:02Z</time>
      </trkpt>
      <trkpt lat="45.6133" lon="4.71097">
        <ele>374.9</ele>
        <time>2011-06-07T17:52:04Z</time>
      </trkpt>
      <trkpt lat="45.61334" lon="4.71093">
        <ele>374.4</ele>
        <time>2011-06-07T17:52:06Z</time>
      </trkpt>
      <trkpt lat="45.61339" lon="4.71092">
        <ele>373.9</ele>
        <time>2011-06-07T17:52:09Z</time>
      </trkpt>
      <trkpt lat="45.61345" lon="4.71088">
        <ele>374.6</ele>
        <time>2011-06-07T17:52:12Z</time>
      </trkpt>
      <trkpt lat="45.61349" lon="4.71086">
        <ele>374.2</ele>
        <time>2011-06-07T17:52:14Z</time>
      </trkpt>
      <trkpt lat="45.61355" lon="4.7108">
        <ele>374.2</ele>
        <time>2011-06-07T17:52:17Z</time>
      </trkpt>
      <trkpt lat="45.6136" lon="4.71074">
        <ele>374.3</ele>
        <time>2011-06-07T17:52:20Z</time>
      </trkpt>
      <trkpt lat="45.61365" lon="4.71072">
        <ele>373.5</ele>
        <time>2011-06-07T17:52:22Z</time>
      </trkpt>
      <trkpt lat="45.6137" lon="4.71069">
        <ele>375</ele>
        <time>2011-06-07T17:52:25Z</time>
      </trkpt>
      <trkpt lat="45.61376" lon="4.71064">
        <ele>374.7</ele>
        <time>2011-06-07T17:52:28Z</time>
      </trkpt>
      <trkpt lat="45.61381" lon="4.71061">
        <ele>374.4</ele>
        <time>2011-06-07T17:52:30Z</time>
      </trkpt>
      <trkpt lat="45.61387" lon="4.71058">
        <ele>374.9</ele>
        <time>2011-06-07T17:52:33Z</time>
      </trkpt>
      <trkpt lat="45.61393" lon="4.71058">
        <ele>375.9</ele>
        <time>2011-06-07T17:52:36Z</time>
      </trkpt>
      <trkpt lat="45.61398" lon="4.71056">
        <ele>375.1</ele>
        <time>2011-06-07T17:52:38Z</time>
      </trkpt>
      <trkpt lat="45.61403" lon="4.71054">
        <ele>374.9</ele>
        <time>2011-06-07T17:52:40Z</time>
      </trkpt>
      <trkpt lat="45.61409" lon="4.71053">
        <ele>375.8</ele>
        <time>2011-06-07T17:52:43Z</time>
      </trkpt>
      <trkpt lat="45.61413" lon="4.71052">
        <ele>375.7</ele>
        <time>2011-06-07T17:52:45Z</time>
      </trkpt>
      <trkpt lat="45.61418" lon="4.71049">
        <ele>377.4</ele>
        <time>2011-06-07T17:52:48Z</time>
      </trkpt>
      <trkpt lat="45.61423" lon="4.71048">
        <ele>377.6</ele>
        <time>2011-06-07T17:52:50Z</time>
      </trkpt>
      <trkpt lat="45.61428" lon="4.71047">
        <ele>377</ele>
        <time>2011-06-07T17:52:52Z</time>
      </trkpt>
      <trkpt lat="45.61434" lon="4.71045">
        <ele>375.4</ele>
        <time>2011-06-07T17:52:55Z</time>
      </trkpt>
      <trkpt lat="45.61439" lon="4.71044">
        <ele>374.7</ele>
        <time>2011-06-07T17:52:57Z</time>
      </trkpt>
      <trkpt lat="45.61445" lon="4.71042">
        <ele>374.5</ele>
        <time>2011-06-07T17:52:59Z</time>
      </trkpt>
      <trkpt lat="45.6145" lon="4.71042">
        <ele>374.1</ele>
        <time>2011-06-07T17:53:01Z</time>
      </trkpt>
      <trkpt lat="45.61454" lon="4.71044">
        <ele>375</ele>
        <time>2011-06-07T17:53:03Z</time>
      </trkpt>
      <trkpt lat="45.61461" lon="4.71044">
        <ele>375</ele>
        <time>2011-06-07T17:53:06Z</time>
      </trkpt>
      <trkpt lat="45.61467" lon="4.71043">
        <ele>375.3</ele>
        <time>2011-06-07T17:53:08Z</time>
      </trkpt>
      <trkpt lat="45.61472" lon="4.71043">
        <ele>375.4</ele>
        <time>2011-06-07T17:53:10Z</time>
      </trkpt>
      <trkpt lat="45.61478" lon="4.71043">
        <ele>375.3</ele>
        <time>2011-06-07T17:53:12Z</time>
      </trkpt>
      <trkpt lat="45.61486" lon="4.71045">
        <ele>376.5</ele>
        <time>2011-06-07T17:53:15Z</time>
      </trkpt>
      <trkpt lat="45.61492" lon="4.71047">
        <ele>376.8</ele>
        <time>2011-06-07T17:53:18Z</time>
      </trkpt>
      <trkpt lat="45.61498" lon="4.71049">
        <ele>376.6</ele>
        <time>2011-06-07T17:53:21Z</time>
      </trkpt>
      <trkpt lat="45.61502" lon="4.7105">
        <ele>376.9</ele>
        <time>2011-06-07T17:53:23Z</time>
      </trkpt>
      <trkpt lat="45.61508" lon="4.71053">
        <ele>378.4</ele>
        <time>2011-06-07T17:53:27Z</time>
      </trkpt>
      <trkpt lat="45.61513" lon="4.71053">
        <ele>378.4</ele>
        <time>2011-06-07T17:53:29Z</time>
      </trkpt>
      <trkpt lat="45.61519" lon="4.71054">
        <ele>377.5</ele>
        <time>2011-06-07T17:53:32Z</time>
      </trkpt>
      <trkpt lat="45.61524" lon="4.71055">
        <ele>377.1</ele>
        <time>2011-06-07T17:53:34Z</time>
      </trkpt>
      <trkpt lat="45.61529" lon="4.71058">
        <ele>376.9</ele>
        <time>2011-06-07T17:53:36Z</time>
      </trkpt>
      <trkpt lat="45.61532" lon="4.71063">
        <ele>376.9</ele>
        <time>2011-06-07T17:53:38Z</time>
      </trkpt>
      <trkpt lat="45.61538" lon="4.71068">
        <ele>378</ele>
        <time>2011-06-07T17:53:41Z</time>
      </trkpt>
      <trkpt lat="45.61543" lon="4.71075">
        <ele>377.9</ele>
        <time>2011-06-07T17:53:44Z</time>
      </trkpt>
      <trkpt lat="45.61547" lon="4.71079">
        <ele>377.5</ele>
        <time>2011-06-07T17:53:46Z</time>
      </trkpt>
      <trkpt lat="45.61551" lon="4.71082">
        <ele>377.6</ele>
        <time>2011-06-07T17:53:48Z</time>
      </trkpt>
      <trkpt lat="45.61555" lon="4.71086">
        <ele>377.9</ele>
        <time>2011-06-07T17:53:50Z</time>
      </trkpt>
      <trkpt lat="45.61561" lon="4.71088">
        <ele>377.9</ele>
        <time>2011-06-07T17:53:52Z</time>
      </trkpt>
      <trkpt lat="45.61566" lon="4.71092">
        <ele>377.8</ele>
        <time>2011-06-07T17:53:54Z</time>
      </trkpt>
      <trkpt lat="45.6157" lon="4.71098">
        <ele>378.1</ele>
        <time>2011-06-07T17:53:57Z</time>
      </trkpt>
      <trkpt lat="45.61574" lon="4.71104">
        <ele>379.3</ele>
        <time>2011-06-07T17:54:00Z</time>
      </trkpt>
      <trkpt lat="45.61578" lon="4.71107">
        <ele>380.2</ele>
        <time>2011-06-07T17:54:02Z</time>
      </trkpt>
      <trkpt lat="45.61582" lon="4.7111">
        <ele>380.4</ele>
        <time>2011-06-07T17:54:04Z</time>
      </trkpt>
      <trkpt lat="45.61587" lon="4.71113">
        <ele>380.2</ele>
        <time>2011-06-07T17:54:06Z</time>
      </trkpt>
      <trkpt lat="45.61592" lon="4.71116">
        <ele>379.6</ele>
        <time>2011-06-07T17:54:08Z</time>
      </trkpt>
      <trkpt lat="45.61596" lon="4.7112">
        <ele>379.5</ele>
        <time>2011-06-07T17:54:10Z</time>
      </trkpt>
      <trkpt lat="45.616" lon="4.71123">
        <ele>379</ele>
        <time>2011-06-07T17:54:12Z</time>
      </trkpt>
      <trkpt lat="45.61605" lon="4.71126">
        <ele>378.6</ele>
        <time>2011-06-07T17:54:14Z</time>
      </trkpt>
      <trkpt lat="45.61611" lon="4.71129">
        <ele>380.5</ele>
        <time>2011-06-07T17:54:17Z</time>
      </trkpt>
      <trkpt lat="45.61615" lon="4.71132">
        <ele>379.4</ele>
        <time>2011-06-07T17:54:19Z</time>
      </trkpt>
      <trkpt lat="45.6162" lon="4.71134">
        <ele>379.1</ele>
        <time>2011-06-07T17:54:21Z</time>
      </trkpt>
      <trkpt lat="45.61624" lon="4.71137">
        <ele>380.2</ele>
        <time>2011-06-07T17:54:23Z</time>
      </trkpt>
      <trkpt lat="45.61629" lon="4.71139">
        <ele>380.7</ele>
        <time>2011-06-07T17:54:25Z</time>
      </trkpt>
      <trkpt lat="45.61634" lon="4.7114">
        <ele>380.1</ele>
        <time>2011-06-07T17:54:27Z</time>
      </trkpt>
      <trkpt lat="45.61639" lon="4.71141">
        <ele>380</ele>
        <time>2011-06-07T17:54:29Z</time>
      </trkpt>
      <trkpt lat="45.61644" lon="4.71141">
        <ele>380</ele>
        <time>2011-06-07T17:54:31Z</time>
      </trkpt>
      <trkpt lat="45.61648" lon="4.71139">
        <ele>379.4</ele>
        <time>2011-06-07T17:54:33Z</time>
      </trkpt>
      <trkpt lat="45.61653" lon="4.71138">
        <ele>378.4</ele>
        <time>2011-06-07T17:54:36Z</time>
      </trkpt>
      <trkpt lat="45.61658" lon="4.71136">
        <ele>378.7</ele>
        <time>2011-06-07T17:54:38Z</time>
      </trkpt>
      <trkpt lat="45.61664" lon="4.71134">
        <ele>377.7</ele>
        <time>2011-06-07T17:54:41Z</time>
      </trkpt>
      <trkpt lat="45.61669" lon="4.7113">
        <ele>378.7</ele>
        <time>2011-06-07T17:54:43Z</time>
      </trkpt>
      <trkpt lat="45.61674" lon="4.71126">
        <ele>379</ele>
        <time>2011-06-07T17:54:45Z</time>
      </trkpt>
      <trkpt lat="45.61679" lon="4.71122">
        <ele>379.5</ele>
        <time>2011-06-07T17:54:47Z</time>
      </trkpt>
      <trkpt lat="45.61684" lon="4.7112">
        <ele>378.9</ele>
        <time>2011-06-07T17:54:49Z</time>
      </trkpt>
      <trkpt lat="45.61688" lon="4.71117">
        <ele>379.5</ele>
        <time>2011-06-07T17:54:51Z</time>
      </trkpt>
      <trkpt lat="45.61694" lon="4.71112">
        <ele>380.2</ele>
        <time>2011-06-07T17:54:54Z</time>
      </trkpt>
      <trkpt lat="45.61699" lon="4.7111">
        <ele>380.3</ele>
        <time>2011-06-07T17:54:56Z</time>
      </trkpt>
      <trkpt lat="45.61704" lon="4.71108">
        <ele>379.7</ele>
        <time>2011-06-07T17:54:58Z</time>
      </trkpt>
      <trkpt lat="45.61709" lon="4.71109">
        <ele>378.8</ele>
        <time>2011-06-07T17:55:00Z</time>
      </trkpt>
      <trkpt lat="45.61715" lon="4.71109">
        <ele>379.7</ele>
        <time>2011-06-07T17:55:02Z</time>
      </trkpt>
      <trkpt lat="45.61722" lon="4.7111">
        <ele>378.6</ele>
        <time>2011-06-07T17:55:05Z</time>
      </trkpt>
      <trkpt lat="45.61728" lon="4.71112">
        <ele>377.9</ele>
        <time>2011-06-07T17:55:07Z</time>
      </trkpt>
      <trkpt lat="45.61733" lon="4.71114">
        <ele>376.8</ele>
        <time>2011-06-07T17:55:09Z</time>
      </trkpt>
      <trkpt lat="45.61735" lon="4.7112">
        <ele>376.1</ele>
        <time>2011-06-07T17:55:12Z</time>
      </trkpt>
      <trkpt lat="45.61734" lon="4.71129">
        <ele>375.7</ele>
        <time>2011-06-07T17:55:15Z</time>
      </trkpt>
      <trkpt lat="45.61731" lon="4.71136">
        <ele>375.2</ele>
        <time>2011-06-07T17:55:18Z</time>
      </trkpt>
      <trkpt lat="45.61727" lon="4.71141">
        <ele>375.4</ele>
        <time>2011-06-07T17:55:20Z</time>
      </trkpt>
      <trkpt lat="45.61724" lon="4.71149">
        <ele>375.2</ele>
        <time>2011-06-07T17:55:23Z</time>
      </trkpt>
      <trkpt lat="45.61717" lon="4.71153">
        <ele>376</ele>
        <time>2011-06-07T17:55:27Z</time>
      </trkpt>
      <trkpt lat="45.61714" lon="4.71158">
        <ele>376.4</ele>
        <time>2011-06-07T17:55:29Z</time>
      </trkpt>
      <trkpt lat="45.61712" lon="4.71164">
        <ele>376.7</ele>
        <time>2011-06-07T17:55:31Z</time>
      </trkpt>
      <trkpt lat="45.61709" lon="4.71172">
        <ele>377.9</ele>
        <time>2011-06-07T17:55:34Z</time>
      </trkpt>
      <trkpt lat="45.61704" lon="4.71177">
        <ele>378</ele>
        <time>2011-06-07T17:55:36Z</time>
      </trkpt>
      <trkpt lat="45.61702" lon="4.71184">
        <ele>380.5</ele>
        <time>2011-06-07T17:55:40Z</time>
      </trkpt>
      <trkpt lat="45.61699" lon="4.71189">
        <ele>381.9</ele>
        <time>2011-06-07T17:55:43Z</time>
      </trkpt>
      <trkpt lat="45.61698" lon="4.71197">
        <ele>384.8</ele>
        <time>2011-06-07T17:55:46Z</time>
      </trkpt>
      <trkpt lat="45.61689" lon="4.71202">
        <ele>380.2</ele>
        <time>2011-06-07T17:55:47Z</time>
      </trkpt>
      <trkpt lat="45.61683" lon="4.71206">
        <ele>376.9</ele>
        <time>2011-06-07T17:55:48Z</time>
      </trkpt>
      <trkpt lat="45.61678" lon="4.71213">
        <ele>375.2</ele>
        <time>2011-06-07T17:55:50Z</time>
      </trkpt>
      <trkpt lat="45.61677" lon="4.7122">
        <ele>373.1</ele>
        <time>2011-06-07T17:55:51Z</time>
      </trkpt>
      <trkpt lat="45.61672" lon="4.71224">
        <ele>373.1</ele>
        <time>2011-06-07T17:55:53Z</time>
      </trkpt>
      <trkpt lat="45.61668" lon="4.71229">
        <ele>373.3</ele>
        <time>2011-06-07T17:55:55Z</time>
      </trkpt>
      <trkpt lat="45.61664" lon="4.71237">
        <ele>372.1</ele>
        <time>2011-06-07T17:55:58Z</time>
      </trkpt>
      <trkpt lat="45.6166" lon="4.71242">
        <ele>373.6</ele>
        <time>2011-06-07T17:56:00Z</time>
      </trkpt>
      <trkpt lat="45.61655" lon="4.71248">
        <ele>374.5</ele>
        <time>2011-06-07T17:56:03Z</time>
      </trkpt>
      <trkpt lat="45.61651" lon="4.71256">
        <ele>374.8</ele>
        <time>2011-06-07T17:56:06Z</time>
      </trkpt>
      <trkpt lat="45.61648" lon="4.71262">
        <ele>373.8</ele>
        <time>2011-06-07T17:56:08Z</time>
      </trkpt>
      <trkpt lat="45.61645" lon="4.71269">
        <ele>374.4</ele>
        <time>2011-06-07T17:56:11Z</time>
      </trkpt>
      <trkpt lat="45.61642" lon="4.71274">
        <ele>374.8</ele>
        <time>2011-06-07T17:56:13Z</time>
      </trkpt>
      <trkpt lat="45.61638" lon="4.7128">
        <ele>375.7</ele>
        <time>2011-06-07T17:56:15Z</time>
      </trkpt>
      <trkpt lat="45.61636" lon="4.71286">
        <ele>375.6</ele>
        <time>2011-06-07T17:56:17Z</time>
      </trkpt>
      <trkpt lat="45.61632" lon="4.71294">
        <ele>375.6</ele>
        <time>2011-06-07T17:56:19Z</time>
      </trkpt>
      <trkpt lat="45.61628" lon="4.71301">
        <ele>375.2</ele>
        <time>2011-06-07T17:56:22Z</time>
      </trkpt>
      <trkpt lat="45.61625" lon="4.71307">
        <ele>374.9</ele>
        <time>2011-06-07T17:56:24Z</time>
      </trkpt>
      <trkpt lat="45.61621" lon="4.71312">
        <ele>375.4</ele>
        <time>2011-06-07T17:56:26Z</time>
      </trkpt>
      <trkpt lat="45.61617" lon="4.71319">
        <ele>375.1</ele>
        <time>2011-06-07T17:56:29Z</time>
      </trkpt>
      <trkpt lat="45.61613" lon="4.71324">
        <ele>374.7</ele>
        <time>2011-06-07T17:56:31Z</time>
      </trkpt>
      <trkpt lat="45.61612" lon="4.7133">
        <ele>374.3</ele>
        <time>2011-06-07T17:56:33Z</time>
      </trkpt>
      <trkpt lat="45.6161" lon="4.71337">
        <ele>375.1</ele>
        <time>2011-06-07T17:56:35Z</time>
      </trkpt>
      <trkpt lat="45.61606" lon="4.71343">
        <ele>375.7</ele>
        <time>2011-06-07T17:56:37Z</time>
      </trkpt>
      <trkpt lat="45.61603" lon="4.7135">
        <ele>375.8</ele>
        <time>2011-06-07T17:56:40Z</time>
      </trkpt>
      <trkpt lat="45.61599" lon="4.7136">
        <ele>373</ele>
        <time>2011-06-07T17:56:43Z</time>
      </trkpt>
      <trkpt lat="45.61597" lon="4.71367">
        <ele>372</ele>
        <time>2011-06-07T17:56:45Z</time>
      </trkpt>
      <trkpt lat="45.61594" lon="4.71372">
        <ele>371.7</ele>
        <time>2011-06-07T17:56:47Z</time>
      </trkpt>
      <trkpt lat="45.61591" lon="4.71378">
        <ele>371.2</ele>
        <time>2011-06-07T17:56:49Z</time>
      </trkpt>
      <trkpt lat="45.61588" lon="4.71383">
        <ele>370.5</ele>
        <time>2011-06-07T17:56:51Z</time>
      </trkpt>
      <trkpt lat="45.61582" lon="4.71387">
        <ele>369.8</ele>
        <time>2011-06-07T17:56:53Z</time>
      </trkpt>
      <trkpt lat="45.61579" lon="4.71392">
        <ele>365</ele>
        <time>2011-06-07T17:56:55Z</time>
      </trkpt>
      <trkpt lat="45.61573" lon="4.71397">
        <ele>364.9</ele>
        <time>2011-06-07T17:56:58Z</time>
      </trkpt>
      <trkpt lat="45.61569" lon="4.71406">
        <ele>365.3</ele>
        <time>2011-06-07T17:57:01Z</time>
      </trkpt>
      <trkpt lat="45.61565" lon="4.71411">
        <ele>366.3</ele>
        <time>2011-06-07T17:57:03Z</time>
      </trkpt>
      <trkpt lat="45.61559" lon="4.71417">
        <ele>367.8</ele>
        <time>2011-06-07T17:57:06Z</time>
      </trkpt>
      <trkpt lat="45.61556" lon="4.71422">
        <ele>369.2</ele>
        <time>2011-06-07T17:57:08Z</time>
      </trkpt>
      <trkpt lat="45.61553" lon="4.71428">
        <ele>368.8</ele>
        <time>2011-06-07T17:57:10Z</time>
      </trkpt>
      <trkpt lat="45.61548" lon="4.71431">
        <ele>370.3</ele>
        <time>2011-06-07T17:57:12Z</time>
      </trkpt>
      <trkpt lat="45.61544" lon="4.71437">
        <ele>370.8</ele>
        <time>2011-06-07T17:57:14Z</time>
      </trkpt>
      <trkpt lat="45.61539" lon="4.7144">
        <ele>370.9</ele>
        <time>2011-06-07T17:57:16Z</time>
      </trkpt>
      <trkpt lat="45.61534" lon="4.71445">
        <ele>369.9</ele>
        <time>2011-06-07T17:57:18Z</time>
      </trkpt>
      <trkpt lat="45.6153" lon="4.71453">
        <ele>369.8</ele>
        <time>2011-06-07T17:57:21Z</time>
      </trkpt>
      <trkpt lat="45.61526" lon="4.71458">
        <ele>370.6</ele>
        <time>2011-06-07T17:57:23Z</time>
      </trkpt>
      <trkpt lat="45.61522" lon="4.71462">
        <ele>371.3</ele>
        <time>2011-06-07T17:57:25Z</time>
      </trkpt>
      <trkpt lat="45.6152" lon="4.71472">
        <ele>368.3</ele>
        <time>2011-06-07T17:57:28Z</time>
      </trkpt>
      <trkpt lat="45.61517" lon="4.71476">
        <ele>367.6</ele>
        <time>2011-06-07T17:57:30Z</time>
      </trkpt>
      <trkpt lat="45.61514" lon="4.71482">
        <ele>367.6</ele>
        <time>2011-06-07T17:57:32Z</time>
      </trkpt>
      <trkpt lat="45.61509" lon="4.7149">
        <ele>368.2</ele>
        <time>2011-06-07T17:57:35Z</time>
      </trkpt>
      <trkpt lat="45.61505" lon="4.71495">
        <ele>368.5</ele>
        <time>2011-06-07T17:57:37Z</time>
      </trkpt>
      <trkpt lat="45.61501" lon="4.71503">
        <ele>368.4</ele>
        <time>2011-06-07T17:57:40Z</time>
      </trkpt>
      <trkpt lat="45.61498" lon="4.71508">
        <ele>368.2</ele>
        <time>2011-06-07T17:57:43Z</time>
      </trkpt>
      <trkpt lat="45.61493" lon="4.71513">
        <ele>368.5</ele>
        <time>2011-06-07T17:57:45Z</time>
      </trkpt>
      <trkpt lat="45.61488" lon="4.71517">
        <ele>369.6</ele>
        <time>2011-06-07T17:57:47Z</time>
      </trkpt>
      <trkpt lat="45.61483" lon="4.71523">
        <ele>370.1</ele>
        <time>2011-06-07T17:57:49Z</time>
      </trkpt>
      <trkpt lat="45.61478" lon="4.71528">
        <ele>370.1</ele>
        <time>2011-06-07T17:57:52Z</time>
      </trkpt>
      <trkpt lat="45.61476" lon="4.71535">
        <ele>370.5</ele>
        <time>2011-06-07T17:57:54Z</time>
      </trkpt>
      <trkpt lat="45.61473" lon="4.71542">
        <ele>371.7</ele>
        <time>2011-06-07T17:57:57Z</time>
      </trkpt>
      <trkpt lat="45.61471" lon="4.71549">
        <ele>371.1</ele>
        <time>2011-06-07T17:58:00Z</time>
      </trkpt>
      <trkpt lat="45.61468" lon="4.71553">
        <ele>371.3</ele>
        <time>2011-06-07T17:58:02Z</time>
      </trkpt>
      <trkpt lat="45.61464" lon="4.71561">
        <ele>371.4</ele>
        <time>2011-06-07T17:58:05Z</time>
      </trkpt>
      <trkpt lat="45.61462" lon="4.71568">
        <ele>372.5</ele>
        <time>2011-06-07T17:58:07Z</time>
      </trkpt>
      <trkpt lat="45.61457" lon="4.71574">
        <ele>372.2</ele>
        <time>2011-06-07T17:58:10Z</time>
      </trkpt>
      <trkpt lat="45.61454" lon="4.7158">
        <ele>373.2</ele>
        <time>2011-06-07T17:58:12Z</time>
      </trkpt>
      <trkpt lat="45.6145" lon="4.71585">
        <ele>373.1</ele>
        <time>2011-06-07T17:58:14Z</time>
      </trkpt>
      <trkpt lat="45.61445" lon="4.71589">
        <ele>376.7</ele>
        <time>2011-06-07T17:58:16Z</time>
      </trkpt>
      <trkpt lat="45.61442" lon="4.71594">
        <ele>377</ele>
        <time>2011-06-07T17:58:18Z</time>
      </trkpt>
      <trkpt lat="45.61439" lon="4.71601">
        <ele>376.9</ele>
        <time>2011-06-07T17:58:22Z</time>
      </trkpt>
      <trkpt lat="45.61436" lon="4.71607">
        <ele>376.5</ele>
        <time>2011-06-07T17:58:28Z</time>
      </trkpt>
      <trkpt lat="45.61432" lon="4.71612">
        <ele>375.3</ele>
        <time>2011-06-07T17:58:31Z</time>
      </trkpt>
      <trkpt lat="45.61426" lon="4.7162">
        <ele>375.7</ele>
        <time>2011-06-07T17:58:35Z</time>
      </trkpt>
      <trkpt lat="45.6142" lon="4.71626">
        <ele>375.8</ele>
        <time>2011-06-07T17:58:38Z</time>
      </trkpt>
      <trkpt lat="45.61416" lon="4.71633">
        <ele>377.3</ele>
        <time>2011-06-07T17:58:40Z</time>
      </trkpt>
      <trkpt lat="45.61411" lon="4.71639">
        <ele>373.9</ele>
        <time>2011-06-07T17:58:43Z</time>
      </trkpt>
      <trkpt lat="45.61408" lon="4.71645">
        <ele>373.1</ele>
        <time>2011-06-07T17:58:45Z</time>
      </trkpt>
      <trkpt lat="45.61403" lon="4.7165">
        <ele>373.5</ele>
        <time>2011-06-07T17:58:48Z</time>
      </trkpt>
      <trkpt lat="45.61398" lon="4.71656">
        <ele>373.5</ele>
        <time>2011-06-07T17:58:51Z</time>
      </trkpt>
      <trkpt lat="45.61395" lon="4.71662">
        <ele>373.2</ele>
        <time>2011-06-07T17:58:53Z</time>
      </trkpt>
      <trkpt lat="45.61391" lon="4.71668">
        <ele>373.2</ele>
        <time>2011-06-07T17:58:55Z</time>
      </trkpt>
      <trkpt lat="45.61387" lon="4.71675">
        <ele>373.3</ele>
        <time>2011-06-07T17:58:57Z</time>
      </trkpt>
      <trkpt lat="45.61383" lon="4.7168">
        <ele>373.1</ele>
        <time>2011-06-07T17:59:00Z</time>
      </trkpt>
      <trkpt lat="45.61379" lon="4.71684">
        <ele>372</ele>
        <time>2011-06-07T17:59:02Z</time>
      </trkpt>
      <trkpt lat="45.61374" lon="4.71687">
        <ele>375.7</ele>
        <time>2011-06-07T17:59:05Z</time>
      </trkpt>
      <trkpt lat="45.61369" lon="4.71692">
        <ele>375.5</ele>
        <time>2011-06-07T17:59:08Z</time>
      </trkpt>
      <trkpt lat="45.61362" lon="4.71696">
        <ele>380.5</ele>
        <time>2011-06-07T17:59:11Z</time>
      </trkpt>
      <trkpt lat="45.61357" lon="4.71703">
        <ele>381.8</ele>
        <time>2011-06-07T17:59:14Z</time>
      </trkpt>
      <trkpt lat="45.61353" lon="4.71708">
        <ele>382.3</ele>
        <time>2011-06-07T17:59:16Z</time>
      </trkpt>
      <trkpt lat="45.61348" lon="4.71713">
        <ele>381.7</ele>
        <time>2011-06-07T17:59:19Z</time>
      </trkpt>
      <trkpt lat="45.61344" lon="4.7172">
        <ele>382.1</ele>
        <time>2011-06-07T17:59:22Z</time>
      </trkpt>
      <trkpt lat="45.6134" lon="4.71726">
        <ele>381.6</ele>
        <time>2011-06-07T17:59:24Z</time>
      </trkpt>
      <trkpt lat="45.61335" lon="4.71735">
        <ele>380.9</ele>
        <time>2011-06-07T17:59:26Z</time>
      </trkpt>
      <trkpt lat="45.61338" lon="4.71742">
        <ele>380.4</ele>
        <time>2011-06-07T17:59:28Z</time>
      </trkpt>
      <trkpt lat="45.61336" lon="4.71752">
        <ele>377.8</ele>
        <time>2011-06-07T17:59:30Z</time>
      </trkpt>
      <trkpt lat="45.61343" lon="4.71756">
        <ele>375.7</ele>
        <time>2011-06-07T17:59:32Z</time>
      </trkpt>
      <trkpt lat="45.61351" lon="4.71758">
        <ele>373.1</ele>
        <time>2011-06-07T17:59:35Z</time>
      </trkpt>
      <trkpt lat="45.61356" lon="4.71759">
        <ele>373.5</ele>
        <time>2011-06-07T17:59:37Z</time>
      </trkpt>
      <trkpt lat="45.6136" lon="4.71761">
        <ele>372.4</ele>
        <time>2011-06-07T17:59:39Z</time>
      </trkpt>
      <trkpt lat="45.61364" lon="4.71763">
        <ele>371.7</ele>
        <time>2011-06-07T17:59:41Z</time>
      </trkpt>
      <trkpt lat="45.61369" lon="4.71764">
        <ele>371.2</ele>
        <time>2011-06-07T17:59:43Z</time>
      </trkpt>
      <trkpt lat="45.61374" lon="4.71766">
        <ele>370.5</ele>
        <time>2011-06-07T17:59:45Z</time>
      </trkpt>
      <trkpt lat="45.61378" lon="4.71768">
        <ele>371.2</ele>
        <time>2011-06-07T17:59:47Z</time>
      </trkpt>
      <trkpt lat="45.61384" lon="4.71771">
        <ele>371.4</ele>
        <time>2011-06-07T17:59:50Z</time>
      </trkpt>
      <trkpt lat="45.61388" lon="4.71772">
        <ele>371.7</ele>
        <time>2011-06-07T17:59:52Z</time>
      </trkpt>
      <trkpt lat="45.61394" lon="4.71774">
        <ele>369.3</ele>
        <time>2011-06-07T17:59:54Z</time>
      </trkpt>
      <trkpt lat="45.61399" lon="4.71774">
        <ele>368.3</ele>
        <time>2011-06-07T17:59:56Z</time>
      </trkpt>
      <trkpt lat="45.61405" lon="4.71777">
        <ele>368.1</ele>
        <time>2011-06-07T17:59:59Z</time>
      </trkpt>
      <trkpt lat="45.6141" lon="4.71778">
        <ele>367.7</ele>
        <time>2011-06-07T18:00:01Z</time>
      </trkpt>
      <trkpt lat="45.61414" lon="4.71781">
        <ele>368.8</ele>
        <time>2011-06-07T18:00:03Z</time>
      </trkpt>
      <trkpt lat="45.61421" lon="4.71784">
        <ele>368.4</ele>
        <time>2011-06-07T18:00:06Z</time>
      </trkpt>
      <trkpt lat="45.61428" lon="4.71786">
        <ele>366.9</ele>
        <time>2011-06-07T18:00:09Z</time>
      </trkpt>
      <trkpt lat="45.61433" lon="4.71789">
        <ele>365.5</ele>
        <time>2011-06-07T18:00:11Z</time>
      </trkpt>
      <trkpt lat="45.61438" lon="4.7179">
        <ele>364.8</ele>
        <time>2011-06-07T18:00:13Z</time>
      </trkpt>
      <trkpt lat="45.61444" lon="4.7179">
        <ele>364.5</ele>
        <time>2011-06-07T18:00:15Z</time>
      </trkpt>
      <trkpt lat="45.61449" lon="4.71791">
        <ele>364.1</ele>
        <time>2011-06-07T18:00:17Z</time>
      </trkpt>
      <trkpt lat="45.61454" lon="4.71793">
        <ele>363.6</ele>
        <time>2011-06-07T18:00:19Z</time>
      </trkpt>
      <trkpt lat="45.61459" lon="4.71794">
        <ele>364.1</ele>
        <time>2011-06-07T18:00:21Z</time>
      </trkpt>
      <trkpt lat="45.61466" lon="4.71798">
        <ele>363.7</ele>
        <time>2011-06-07T18:00:24Z</time>
      </trkpt>
      <trkpt lat="45.61471" lon="4.718">
        <ele>363</ele>
        <time>2011-06-07T18:00:26Z</time>
      </trkpt>
      <trkpt lat="45.61475" lon="4.71803">
        <ele>364.1</ele>
        <time>2011-06-07T18:00:28Z</time>
      </trkpt>
      <trkpt lat="45.61481" lon="4.71805">
        <ele>363.1</ele>
        <time>2011-06-07T18:00:30Z</time>
      </trkpt>
      <trkpt lat="45.61486" lon="4.71806">
        <ele>362.7</ele>
        <time>2011-06-07T18:00:32Z</time>
      </trkpt>
      <trkpt lat="45.61492" lon="4.7181">
        <ele>362.9</ele>
        <time>2011-06-07T18:00:35Z</time>
      </trkpt>
      <trkpt lat="45.61496" lon="4.71813">
        <ele>362.5</ele>
        <time>2011-06-07T18:00:37Z</time>
      </trkpt>
      <trkpt lat="45.61501" lon="4.71815">
        <ele>362.3</ele>
        <time>2011-06-07T18:00:39Z</time>
      </trkpt>
      <trkpt lat="45.61509" lon="4.71815">
        <ele>360.2</ele>
        <time>2011-06-07T18:00:42Z</time>
      </trkpt>
      <trkpt lat="45.61514" lon="4.71817">
        <ele>359.4</ele>
        <time>2011-06-07T18:00:44Z</time>
      </trkpt>
      <trkpt lat="45.61519" lon="4.71818">
        <ele>359.2</ele>
        <time>2011-06-07T18:00:46Z</time>
      </trkpt>
      <trkpt lat="45.61524" lon="4.7182">
        <ele>358.6</ele>
        <time>2011-06-07T18:00:49Z</time>
      </trkpt>
      <trkpt lat="45.6153" lon="4.7182">
        <ele>357.9</ele>
        <time>2011-06-07T18:00:51Z</time>
      </trkpt>
      <trkpt lat="45.61535" lon="4.71822">
        <ele>358</ele>
        <time>2011-06-07T18:00:53Z</time>
      </trkpt>
      <trkpt lat="45.6154" lon="4.71824">
        <ele>357.5</ele>
        <time>2011-06-07T18:00:55Z</time>
      </trkpt>
      <trkpt lat="45.61546" lon="4.71827">
        <ele>357</ele>
        <time>2011-06-07T18:00:58Z</time>
      </trkpt>
      <trkpt lat="45.6155" lon="4.71828">
        <ele>356.8</ele>
        <time>2011-06-07T18:01:00Z</time>
      </trkpt>
      <trkpt lat="45.61557" lon="4.71831">
        <ele>356.8</ele>
        <time>2011-06-07T18:01:03Z</time>
      </trkpt>
      <trkpt lat="45.61562" lon="4.71834">
        <ele>356.2</ele>
        <time>2011-06-07T18:01:05Z</time>
      </trkpt>
      <trkpt lat="45.61567" lon="4.71834">
        <ele>355.8</ele>
        <time>2011-06-07T18:01:07Z</time>
      </trkpt>
      <trkpt lat="45.61573" lon="4.71836">
        <ele>356.8</ele>
        <time>2011-06-07T18:01:10Z</time>
      </trkpt>
      <trkpt lat="45.61578" lon="4.71838">
        <ele>357</ele>
        <time>2011-06-07T18:01:12Z</time>
      </trkpt>
      <trkpt lat="45.61584" lon="4.7184">
        <ele>357.3</ele>
        <time>2011-06-07T18:01:15Z</time>
      </trkpt>
      <trkpt lat="45.6159" lon="4.71842">
        <ele>357.1</ele>
        <time>2011-06-07T18:01:18Z</time>
      </trkpt>
      <trkpt lat="45.61596" lon="4.71844">
        <ele>357.3</ele>
        <time>2011-06-07T18:01:21Z</time>
      </trkpt>
      <trkpt lat="45.61602" lon="4.71847">
        <ele>356.9</ele>
        <time>2011-06-07T18:01:24Z</time>
      </trkpt>
      <trkpt lat="45.61606" lon="4.71852">
        <ele>356.7</ele>
        <time>2011-06-07T18:01:26Z</time>
      </trkpt>
      <trkpt lat="45.61609" lon="4.71858">
        <ele>356.9</ele>
        <time>2011-06-07T18:01:29Z</time>
      </trkpt>
      <trkpt lat="45.6161" lon="4.71865">
        <ele>356.9</ele>
        <time>2011-06-07T18:01:32Z</time>
      </trkpt>
      <trkpt lat="45.61611" lon="4.71875">
        <ele>354.6</ele>
        <time>2011-06-07T18:01:35Z</time>
      </trkpt>
      <trkpt lat="45.61611" lon="4.71884">
        <ele>354.6</ele>
        <time>2011-06-07T18:01:38Z</time>
      </trkpt>
      <trkpt lat="45.61611" lon="4.71894">
        <ele>356.5</ele>
        <time>2011-06-07T18:01:41Z</time>
      </trkpt>
      <trkpt lat="45.61611" lon="4.719">
        <ele>356.2</ele>
        <time>2011-06-07T18:01:43Z</time>
      </trkpt>
      <trkpt lat="45.61612" lon="4.71909">
        <ele>353.1</ele>
        <time>2011-06-07T18:01:46Z</time>
      </trkpt>
      <trkpt lat="45.61611" lon="4.71917">
        <ele>353</ele>
        <time>2011-06-07T18:01:49Z</time>
      </trkpt>
      <trkpt lat="45.61609" lon="4.71924">
        <ele>353.7</ele>
        <time>2011-06-07T18:01:54Z</time>
      </trkpt>
      <trkpt lat="45.61607" lon="4.71931">
        <ele>354.9</ele>
        <time>2011-06-07T18:02:00Z</time>
      </trkpt>
      <trkpt lat="45.61609" lon="4.71923">
        <ele>354.4</ele>
        <time>2011-06-07T18:02:10Z</time>
      </trkpt>
      <trkpt lat="45.61609" lon="4.71914">
        <ele>355</ele>
        <time>2011-06-07T18:02:13Z</time>
      </trkpt>
      <trkpt lat="45.61608" lon="4.71908">
        <ele>355.2</ele>
        <time>2011-06-07T18:02:15Z</time>
      </trkpt>
      <trkpt lat="45.61609" lon="4.71898">
        <ele>354.6</ele>
        <time>2011-06-07T18:02:18Z</time>
      </trkpt>
      <trkpt lat="45.61609" lon="4.71891">
        <ele>354.6</ele>
        <time>2011-06-07T18:02:20Z</time>
      </trkpt>
      <trkpt lat="45.6161" lon="4.71882">
        <ele>354.1</ele>
        <time>2011-06-07T18:02:23Z</time>
      </trkpt>
      <trkpt lat="45.61608" lon="4.71874">
        <ele>353.8</ele>
        <time>2011-06-07T18:02:26Z</time>
      </trkpt>
      <trkpt lat="45.61609" lon="4.71866">
        <ele>353</ele>
        <time>2011-06-07T18:02:28Z</time>
      </trkpt>
      <trkpt lat="45.61608" lon="4.71858">
        <ele>351.6</ele>
        <time>2011-06-07T18:02:30Z</time>
      </trkpt>
      <trkpt lat="45.6161" lon="4.7185">
        <ele>353.2</ele>
        <time>2011-06-07T18:02:33Z</time>
      </trkpt>
      <trkpt lat="45.61605" lon="4.71844">
        <ele>353.9</ele>
        <time>2011-06-07T18:02:36Z</time>
      </trkpt>
      <trkpt lat="45.616" lon="4.71842">
        <ele>354.2</ele>
        <time>2011-06-07T18:02:39Z</time>
      </trkpt>
      <trkpt lat="45.61595" lon="4.7184">
        <ele>353.4</ele>
        <time>2011-06-07T18:02:41Z</time>
      </trkpt>
      <trkpt lat="45.6159" lon="4.71839">
        <ele>351.8</ele>
        <time>2011-06-07T18:02:43Z</time>
      </trkpt>
      <trkpt lat="45.61585" lon="4.71836">
        <ele>351</ele>
        <time>2011-06-07T18:02:46Z</time>
      </trkpt>
      <trkpt lat="45.6158" lon="4.71834">
        <ele>351.5</ele>
        <time>2011-06-07T18:02:48Z</time>
      </trkpt>
      <trkpt lat="45.61573" lon="4.71832">
        <ele>351.1</ele>
        <time>2011-06-07T18:02:51Z</time>
      </trkpt>
      <trkpt lat="45.61568" lon="4.7183">
        <ele>352</ele>
        <time>2011-06-07T18:02:54Z</time>
      </trkpt>
      <trkpt lat="45.61562" lon="4.71827">
        <ele>353.8</ele>
        <time>2011-06-07T18:02:57Z</time>
      </trkpt>
      <trkpt lat="45.61557" lon="4.71825">
        <ele>353.6</ele>
        <time>2011-06-07T18:02:59Z</time>
      </trkpt>
      <trkpt lat="45.61551" lon="4.71822">
        <ele>355.6</ele>
        <time>2011-06-07T18:03:02Z</time>
      </trkpt>
      <trkpt lat="45.61544" lon="4.7182">
        <ele>356.3</ele>
        <time>2011-06-07T18:03:05Z</time>
      </trkpt>
      <trkpt lat="45.61538" lon="4.71819">
        <ele>357.1</ele>
        <time>2011-06-07T18:03:08Z</time>
      </trkpt>
      <trkpt lat="45.61534" lon="4.71817">
        <ele>356.9</ele>
        <time>2011-06-07T18:03:10Z</time>
      </trkpt>
      <trkpt lat="45.61527" lon="4.71815">
        <ele>357.9</ele>
        <time>2011-06-07T18:03:13Z</time>
      </trkpt>
      <trkpt lat="45.61522" lon="4.71813">
        <ele>357.4</ele>
        <time>2011-06-07T18:03:15Z</time>
      </trkpt>
      <trkpt lat="45.61517" lon="4.7181">
        <ele>357.2</ele>
        <time>2011-06-07T18:03:18Z</time>
      </trkpt>
      <trkpt lat="45.6151" lon="4.71808">
        <ele>357.8</ele>
        <time>2011-06-07T18:03:21Z</time>
      </trkpt>
      <trkpt lat="45.61505" lon="4.71806">
        <ele>360</ele>
        <time>2011-06-07T18:03:24Z</time>
      </trkpt>
      <trkpt lat="45.615" lon="4.71804">
        <ele>360.3</ele>
        <time>2011-06-07T18:03:26Z</time>
      </trkpt>
      <trkpt lat="45.61494" lon="4.71801">
        <ele>361.2</ele>
        <time>2011-06-07T18:03:29Z</time>
      </trkpt>
      <trkpt lat="45.61488" lon="4.71799">
        <ele>362.1</ele>
        <time>2011-06-07T18:03:32Z</time>
      </trkpt>
      <trkpt lat="45.61482" lon="4.71796">
        <ele>362.8</ele>
        <time>2011-06-07T18:03:35Z</time>
      </trkpt>
      <trkpt lat="45.61477" lon="4.71795">
        <ele>363.9</ele>
        <time>2011-06-07T18:03:37Z</time>
      </trkpt>
      <trkpt lat="45.61472" lon="4.71794">
        <ele>364.4</ele>
        <time>2011-06-07T18:03:39Z</time>
      </trkpt>
      <trkpt lat="45.61467" lon="4.71793">
        <ele>364.8</ele>
        <time>2011-06-07T18:03:41Z</time>
      </trkpt>
      <trkpt lat="45.61462" lon="4.7179">
        <ele>364.5</ele>
        <time>2011-06-07T18:03:44Z</time>
      </trkpt>
      <trkpt lat="45.61457" lon="4.71788">
        <ele>365.2</ele>
        <time>2011-06-07T18:03:46Z</time>
      </trkpt>
      <trkpt lat="45.6145" lon="4.71787">
        <ele>364.1</ele>
        <time>2011-06-07T18:03:49Z</time>
      </trkpt>
      <trkpt lat="45.61444" lon="4.71784">
        <ele>364.3</ele>
        <time>2011-06-07T18:03:52Z</time>
      </trkpt>
      <trkpt lat="45.61438" lon="4.71781">
        <ele>364</ele>
        <time>2011-06-07T18:03:55Z</time>
      </trkpt>
      <trkpt lat="45.61432" lon="4.71777">
        <ele>364.3</ele>
        <time>2011-06-07T18:03:58Z</time>
      </trkpt>
      <trkpt lat="45.61427" lon="4.71774">
        <ele>365.7</ele>
        <time>2011-06-07T18:04:01Z</time>
      </trkpt>
      <trkpt lat="45.61422" lon="4.71774">
        <ele>365.9</ele>
        <time>2011-06-07T18:04:03Z</time>
      </trkpt>
      <trkpt lat="45.61417" lon="4.71773">
        <ele>366</ele>
        <time>2011-06-07T18:04:05Z</time>
      </trkpt>
      <trkpt lat="45.61411" lon="4.71771">
        <ele>369</ele>
        <time>2011-06-07T18:04:09Z</time>
      </trkpt>
      <trkpt lat="45.61405" lon="4.71769">
        <ele>370.7</ele>
        <time>2011-06-07T18:04:12Z</time>
      </trkpt>
      <trkpt lat="45.614" lon="4.71767">
        <ele>371.6</ele>
        <time>2011-06-07T18:04:15Z</time>
      </trkpt>
      <trkpt lat="45.61396" lon="4.71766">
        <ele>371.5</ele>
        <time>2011-06-07T18:04:17Z</time>
      </trkpt>
      <trkpt lat="45.61391" lon="4.71765">
        <ele>371.7</ele>
        <time>2011-06-07T18:04:19Z</time>
      </trkpt>
      <trkpt lat="45.61387" lon="4.71764">
        <ele>372.2</ele>
        <time>2011-06-07T18:04:21Z</time>
      </trkpt>
      <trkpt lat="45.61381" lon="4.71762">
        <ele>373.3</ele>
        <time>2011-06-07T18:04:24Z</time>
      </trkpt>
      <trkpt lat="45.61375" lon="4.71759">
        <ele>374.2</ele>
        <time>2011-06-07T18:04:27Z</time>
      </trkpt>
      <trkpt lat="45.6137" lon="4.71757">
        <ele>374.2</ele>
        <time>2011-06-07T18:04:29Z</time>
      </trkpt>
      <trkpt lat="45.61365" lon="4.71756">
        <ele>374</ele>
        <time>2011-06-07T18:04:31Z</time>
      </trkpt>
      <trkpt lat="45.61357" lon="4.71753">
        <ele>376.1</ele>
        <time>2011-06-07T18:04:35Z</time>
      </trkpt>
      <trkpt lat="45.61352" lon="4.71752">
        <ele>375.1</ele>
        <time>2011-06-07T18:04:37Z</time>
      </trkpt>
      <trkpt lat="45.61346" lon="4.7175">
        <ele>375.1</ele>
        <time>2011-06-07T18:04:40Z</time>
      </trkpt>
      <trkpt lat="45.6134" lon="4.71748">
        <ele>375.5</ele>
        <time>2011-06-07T18:04:43Z</time>
      </trkpt>
      <trkpt lat="45.61333" lon="4.7175">
        <ele>375.5</ele>
        <time>2011-06-07T18:04:46Z</time>
      </trkpt>
      <trkpt lat="45.61328" lon="4.71752">
        <ele>375.8</ele>
        <time>2011-06-07T18:04:48Z</time>
      </trkpt>
      <trkpt lat="45.61324" lon="4.71755">
        <ele>375.8</ele>
        <time>2011-06-07T18:04:50Z</time>
      </trkpt>
      <trkpt lat="45.61322" lon="4.71762">
        <ele>375.5</ele>
        <time>2011-06-07T18:04:52Z</time>
      </trkpt>
      <trkpt lat="45.61318" lon="4.71768">
        <ele>372.8</ele>
        <time>2011-06-07T18:04:54Z</time>
      </trkpt>
      <trkpt lat="45.61315" lon="4.71774">
        <ele>372.3</ele>
        <time>2011-06-07T18:04:56Z</time>
      </trkpt>
      <trkpt lat="45.61311" lon="4.71778">
        <ele>373.4</ele>
        <time>2011-06-07T18:04:58Z</time>
      </trkpt>
      <trkpt lat="45.61307" lon="4.71782">
        <ele>373.5</ele>
        <time>2011-06-07T18:05:00Z</time>
      </trkpt>
      <trkpt lat="45.61303" lon="4.71787">
        <ele>373.8</ele>
        <time>2011-06-07T18:05:02Z</time>
      </trkpt>
      <trkpt lat="45.61299" lon="4.71791">
        <ele>373.8</ele>
        <time>2011-06-07T18:05:04Z</time>
      </trkpt>
      <trkpt lat="45.61294" lon="4.71795">
        <ele>373.4</ele>
        <time>2011-06-07T18:05:06Z</time>
      </trkpt>
      <trkpt lat="45.6129" lon="4.71799">
        <ele>374.7</ele>
        <time>2011-06-07T18:05:08Z</time>
      </trkpt>
      <trkpt lat="45.61286" lon="4.71804">
        <ele>374.6</ele>
        <time>2011-06-07T18:05:10Z</time>
      </trkpt>
      <trkpt lat="45.61281" lon="4.71808">
        <ele>376.2</ele>
        <time>2011-06-07T18:05:12Z</time>
      </trkpt>
      <trkpt lat="45.61277" lon="4.71813">
        <ele>378.6</ele>
        <time>2011-06-07T18:05:14Z</time>
      </trkpt>
      <trkpt lat="45.61273" lon="4.71821">
        <ele>376.4</ele>
        <time>2011-06-07T18:05:17Z</time>
      </trkpt>
      <trkpt lat="45.6127" lon="4.71828">
        <ele>375.9</ele>
        <time>2011-06-07T18:05:19Z</time>
      </trkpt>
      <trkpt lat="45.61268" lon="4.71833">
        <ele>374.8</ele>
        <time>2011-06-07T18:05:21Z</time>
      </trkpt>
      <trkpt lat="45.61264" lon="4.71838">
        <ele>373.7</ele>
        <time>2011-06-07T18:05:23Z</time>
      </trkpt>
      <trkpt lat="45.6126" lon="4.71845">
        <ele>373.2</ele>
        <time>2011-06-07T18:05:25Z</time>
      </trkpt>
      <trkpt lat="45.61255" lon="4.71848">
        <ele>373.2</ele>
        <time>2011-06-07T18:05:28Z</time>
      </trkpt>
      <trkpt lat="45.61249" lon="4.71855">
        <ele>373.1</ele>
        <time>2011-06-07T18:05:31Z</time>
      </trkpt>
      <trkpt lat="45.61246" lon="4.71862">
        <ele>373</ele>
        <time>2011-06-07T18:05:33Z</time>
      </trkpt>
      <trkpt lat="45.61241" lon="4.71865">
        <ele>372.6</ele>
        <time>2011-06-07T18:05:35Z</time>
      </trkpt>
      <trkpt lat="45.61238" lon="4.71872">
        <ele>372.3</ele>
        <time>2011-06-07T18:05:37Z</time>
      </trkpt>
      <trkpt lat="45.61235" lon="4.71877">
        <ele>372.3</ele>
        <time>2011-06-07T18:05:39Z</time>
      </trkpt>
      <trkpt lat="45.61229" lon="4.71881">
        <ele>372</ele>
        <time>2011-06-07T18:05:42Z</time>
      </trkpt>
      <trkpt lat="45.61224" lon="4.71886">
        <ele>371.5</ele>
        <time>2011-06-07T18:05:45Z</time>
      </trkpt>
      <trkpt lat="45.6122" lon="4.71891">
        <ele>371.3</ele>
        <time>2011-06-07T18:05:48Z</time>
      </trkpt>
      <trkpt lat="45.61215" lon="4.71894">
        <ele>371.6</ele>
        <time>2011-06-07T18:05:50Z</time>
      </trkpt>
      <trkpt lat="45.6121" lon="4.71901">
        <ele>373.6</ele>
        <time>2011-06-07T18:05:53Z</time>
      </trkpt>
      <trkpt lat="45.61207" lon="4.71905">
        <ele>373.6</ele>
        <time>2011-06-07T18:05:55Z</time>
      </trkpt>
      <trkpt lat="45.61204" lon="4.71911">
        <ele>372.2</ele>
        <time>2011-06-07T18:05:57Z</time>
      </trkpt>
      <trkpt lat="45.61198" lon="4.71918">
        <ele>373.3</ele>
        <time>2011-06-07T18:06:00Z</time>
      </trkpt>
      <trkpt lat="45.61194" lon="4.71922">
        <ele>373.1</ele>
        <time>2011-06-07T18:06:02Z</time>
      </trkpt>
      <trkpt lat="45.6119" lon="4.71926">
        <ele>372.7</ele>
        <time>2011-06-07T18:06:04Z</time>
      </trkpt>
      <trkpt lat="45.61186" lon="4.71931">
        <ele>372.4</ele>
        <time>2011-06-07T18:06:06Z</time>
      </trkpt>
      <trkpt lat="45.61182" lon="4.71938">
        <ele>372</ele>
        <time>2011-06-07T18:06:09Z</time>
      </trkpt>
      <trkpt lat="45.61179" lon="4.71942">
        <ele>371.5</ele>
        <time>2011-06-07T18:06:11Z</time>
      </trkpt>
      <trkpt lat="45.61174" lon="4.71951">
        <ele>371.8</ele>
        <time>2011-06-07T18:06:14Z</time>
      </trkpt>
      <trkpt lat="45.61172" lon="4.71957">
        <ele>371</ele>
        <time>2011-06-07T18:06:16Z</time>
      </trkpt>
      <trkpt lat="45.61168" lon="4.71962">
        <ele>371.2</ele>
        <time>2011-06-07T18:06:18Z</time>
      </trkpt>
      <trkpt lat="45.61166" lon="4.71969">
        <ele>371.6</ele>
        <time>2011-06-07T18:06:20Z</time>
      </trkpt>
      <trkpt lat="45.61164" lon="4.71975">
        <ele>371.5</ele>
        <time>2011-06-07T18:06:22Z</time>
      </trkpt>
      <trkpt lat="45.61161" lon="4.7198">
        <ele>370.5</ele>
        <time>2011-06-07T18:06:24Z</time>
      </trkpt>
      <trkpt lat="45.61158" lon="4.71986">
        <ele>371.2</ele>
        <time>2011-06-07T18:06:26Z</time>
      </trkpt>
      <trkpt lat="45.61153" lon="4.71994">
        <ele>371</ele>
        <time>2011-06-07T18:06:29Z</time>
      </trkpt>
      <trkpt lat="45.61148" lon="4.72001">
        <ele>371.4</ele>
        <time>2011-06-07T18:06:32Z</time>
      </trkpt>
      <trkpt lat="45.61143" lon="4.72005">
        <ele>371.1</ele>
        <time>2011-06-07T18:06:34Z</time>
      </trkpt>
      <trkpt lat="45.61138" lon="4.72012">
        <ele>371.9</ele>
        <time>2011-06-07T18:06:37Z</time>
      </trkpt>
      <trkpt lat="45.61136" lon="4.72018">
        <ele>373.1</ele>
        <time>2011-06-07T18:06:40Z</time>
      </trkpt>
      <trkpt lat="45.61133" lon="4.72022">
        <ele>372.2</ele>
        <time>2011-06-07T18:06:42Z</time>
      </trkpt>
      <trkpt lat="45.61128" lon="4.72029">
        <ele>372.1</ele>
        <time>2011-06-07T18:06:45Z</time>
      </trkpt>
      <trkpt lat="45.61126" lon="4.72036">
        <ele>372.3</ele>
        <time>2011-06-07T18:06:47Z</time>
      </trkpt>
      <trkpt lat="45.61124" lon="4.72043">
        <ele>372.2</ele>
        <time>2011-06-07T18:06:49Z</time>
      </trkpt>
      <trkpt lat="45.6112" lon="4.72049">
        <ele>373.3</ele>
        <time>2011-06-07T18:06:52Z</time>
      </trkpt>
      <trkpt lat="45.61119" lon="4.7206">
        <ele>372.6</ele>
        <time>2011-06-07T18:06:54Z</time>
      </trkpt>
      <trkpt lat="45.61117" lon="4.72067">
        <ele>371.8</ele>
        <time>2011-06-07T18:06:56Z</time>
      </trkpt>
      <trkpt lat="45.61116" lon="4.72076">
        <ele>372</ele>
        <time>2011-06-07T18:06:59Z</time>
      </trkpt>
      <trkpt lat="45.61113" lon="4.72082">
        <ele>371.7</ele>
        <time>2011-06-07T18:07:01Z</time>
      </trkpt>
      <trkpt lat="45.61112" lon="4.7209">
        <ele>370.7</ele>
        <time>2011-06-07T18:07:04Z</time>
      </trkpt>
      <trkpt lat="45.61113" lon="4.72098">
        <ele>369.2</ele>
        <time>2011-06-07T18:07:06Z</time>
      </trkpt>
      <trkpt lat="45.6111" lon="4.72103">
        <ele>369.7</ele>
        <time>2011-06-07T18:07:08Z</time>
      </trkpt>
      <trkpt lat="45.61108" lon="4.72109">
        <ele>370.4</ele>
        <time>2011-06-07T18:07:10Z</time>
      </trkpt>
      <trkpt lat="45.61108" lon="4.72116">
        <ele>366.2</ele>
        <time>2011-06-07T18:07:13Z</time>
      </trkpt>
      <trkpt lat="45.61107" lon="4.72125">
        <ele>364.8</ele>
        <time>2011-06-07T18:07:16Z</time>
      </trkpt>
      <trkpt lat="45.61105" lon="4.72131">
        <ele>365.3</ele>
        <time>2011-06-07T18:07:18Z</time>
      </trkpt>
      <trkpt lat="45.61103" lon="4.72137">
        <ele>366</ele>
        <time>2011-06-07T18:07:20Z</time>
      </trkpt>
      <trkpt lat="45.611" lon="4.72144">
        <ele>366.9</ele>
        <time>2011-06-07T18:07:22Z</time>
      </trkpt>
      <trkpt lat="45.61102" lon="4.72152">
        <ele>367.3</ele>
        <time>2011-06-07T18:07:24Z</time>
      </trkpt>
      <trkpt lat="45.61098" lon="4.72159">
        <ele>367</ele>
        <time>2011-06-07T18:07:27Z</time>
      </trkpt>
      <trkpt lat="45.61097" lon="4.72169">
        <ele>368</ele>
        <time>2011-06-07T18:07:30Z</time>
      </trkpt>
      <trkpt lat="45.61096" lon="4.72177">
        <ele>370.6</ele>
        <time>2011-06-07T18:07:33Z</time>
      </trkpt>
      <trkpt lat="45.61094" lon="4.72184">
        <ele>372</ele>
        <time>2011-06-07T18:07:35Z</time>
      </trkpt>
      <trkpt lat="45.61093" lon="4.72191">
        <ele>372.1</ele>
        <time>2011-06-07T18:07:37Z</time>
      </trkpt>
      <trkpt lat="45.6109" lon="4.72197">
        <ele>374.5</ele>
        <time>2011-06-07T18:07:39Z</time>
      </trkpt>
      <trkpt lat="45.61088" lon="4.72204">
        <ele>374.6</ele>
        <time>2011-06-07T18:07:42Z</time>
      </trkpt>
      <trkpt lat="45.61086" lon="4.7221">
        <ele>374.7</ele>
        <time>2011-06-07T18:07:44Z</time>
      </trkpt>
      <trkpt lat="45.61086" lon="4.72217">
        <ele>376.8</ele>
        <time>2011-06-07T18:07:46Z</time>
      </trkpt>
      <trkpt lat="45.61085" lon="4.72223">
        <ele>377.7</ele>
        <time>2011-06-07T18:07:48Z</time>
      </trkpt>
      <trkpt lat="45.61084" lon="4.7223">
        <ele>379</ele>
        <time>2011-06-07T18:07:50Z</time>
      </trkpt>
      <trkpt lat="45.61084" lon="4.72238">
        <ele>380.2</ele>
        <time>2011-06-07T18:07:52Z</time>
      </trkpt>
      <trkpt lat="45.61085" lon="4.72246">
        <ele>380.5</ele>
        <time>2011-06-07T18:07:54Z</time>
      </trkpt>
      <trkpt lat="45.61086" lon="4.72252">
        <ele>380.9</ele>
        <time>2011-06-07T18:07:56Z</time>
      </trkpt>
      <trkpt lat="45.6109" lon="4.72261">
        <ele>381.1</ele>
        <time>2011-06-07T18:07:59Z</time>
      </trkpt>
      <trkpt lat="45.61092" lon="4.72266">
        <ele>381.4</ele>
        <time>2011-06-07T18:08:01Z</time>
      </trkpt>
      <trkpt lat="45.61097" lon="4.7227">
        <ele>381.9</ele>
        <time>2011-06-07T18:08:03Z</time>
      </trkpt>
      <trkpt lat="45.611" lon="4.72277">
        <ele>381.6</ele>
        <time>2011-06-07T18:08:05Z</time>
      </trkpt>
      <trkpt lat="45.61102" lon="4.72283">
        <ele>380.3</ele>
        <time>2011-06-07T18:08:07Z</time>
      </trkpt>
      <trkpt lat="45.61104" lon="4.72288">
        <ele>381.7</ele>
        <time>2011-06-07T18:08:09Z</time>
      </trkpt>
      <trkpt lat="45.61107" lon="4.72294">
        <ele>381.7</ele>
        <time>2011-06-07T18:08:11Z</time>
      </trkpt>
      <trkpt lat="45.6111" lon="4.723">
        <ele>381.6</ele>
        <time>2011-06-07T18:08:13Z</time>
      </trkpt>
      <trkpt lat="45.61114" lon="4.72307">
        <ele>381.5</ele>
        <time>2011-06-07T18:08:16Z</time>
      </trkpt>
      <trkpt lat="45.61117" lon="4.72314">
        <ele>381.4</ele>
        <time>2011-06-07T18:08:18Z</time>
      </trkpt>
      <trkpt lat="45.61119" lon="4.72321">
        <ele>381</ele>
        <time>2011-06-07T18:08:20Z</time>
      </trkpt>
      <trkpt lat="45.61122" lon="4.72327">
        <ele>381.1</ele>
        <time>2011-06-07T18:08:22Z</time>
      </trkpt>
      <trkpt lat="45.61123" lon="4.72333">
        <ele>381.6</ele>
        <time>2011-06-07T18:08:24Z</time>
      </trkpt>
      <trkpt lat="45.61125" lon="4.7234">
        <ele>380.5</ele>
        <time>2011-06-07T18:08:26Z</time>
      </trkpt>
      <trkpt lat="45.61127" lon="4.72347">
        <ele>379.9</ele>
        <time>2011-06-07T18:08:28Z</time>
      </trkpt>
      <trkpt lat="45.61129" lon="4.72353">
        <ele>378.9</ele>
        <time>2011-06-07T18:08:30Z</time>
      </trkpt>
      <trkpt lat="45.61131" lon="4.7236">
        <ele>379</ele>
        <time>2011-06-07T18:08:32Z</time>
      </trkpt>
      <trkpt lat="45.61132" lon="4.72371">
        <ele>380.8</ele>
        <time>2011-06-07T18:08:35Z</time>
      </trkpt>
      <trkpt lat="45.61134" lon="4.72378">
        <ele>379.2</ele>
        <time>2011-06-07T18:08:37Z</time>
      </trkpt>
      <trkpt lat="45.61136" lon="4.72384">
        <ele>379</ele>
        <time>2011-06-07T18:08:39Z</time>
      </trkpt>
      <trkpt lat="45.61138" lon="4.72391">
        <ele>378.6</ele>
        <time>2011-06-07T18:08:41Z</time>
      </trkpt>
      <trkpt lat="45.6114" lon="4.72398">
        <ele>378.3</ele>
        <time>2011-06-07T18:08:43Z</time>
      </trkpt>
      <trkpt lat="45.61142" lon="4.72404">
        <ele>377.4</ele>
        <time>2011-06-07T18:08:45Z</time>
      </trkpt>
      <trkpt lat="45.61143" lon="4.72411">
        <ele>377.4</ele>
        <time>2011-06-07T18:08:47Z</time>
      </trkpt>
      <trkpt lat="45.61145" lon="4.72418">
        <ele>377</ele>
        <time>2011-06-07T18:08:49Z</time>
      </trkpt>
      <trkpt lat="45.61147" lon="4.72424">
        <ele>377</ele>
        <time>2011-06-07T18:08:51Z</time>
      </trkpt>
      <trkpt lat="45.61148" lon="4.72432">
        <ele>376.6</ele>
        <time>2011-06-07T18:08:53Z</time>
      </trkpt>
      <trkpt lat="45.61149" lon="4.72438">
        <ele>376.5</ele>
        <time>2011-06-07T18:08:55Z</time>
      </trkpt>
      <trkpt lat="45.61152" lon="4.72445">
        <ele>375.4</ele>
        <time>2011-06-07T18:08:57Z</time>
      </trkpt>
      <trkpt lat="45.61153" lon="4.72453">
        <ele>376.4</ele>
        <time>2011-06-07T18:08:59Z</time>
      </trkpt>
      <trkpt lat="45.61155" lon="4.7246">
        <ele>375.5</ele>
        <time>2011-06-07T18:09:01Z</time>
      </trkpt>
      <trkpt lat="45.61156" lon="4.72467">
        <ele>374.6</ele>
        <time>2011-06-07T18:09:03Z</time>
      </trkpt>
      <trkpt lat="45.61157" lon="4.72474">
        <ele>374.8</ele>
        <time>2011-06-07T18:09:05Z</time>
      </trkpt>
      <trkpt lat="45.61158" lon="4.7248">
        <ele>375.2</ele>
        <time>2011-06-07T18:09:07Z</time>
      </trkpt>
      <trkpt lat="45.61159" lon="4.72489">
        <ele>376.3</ele>
        <time>2011-06-07T18:09:09Z</time>
      </trkpt>
      <trkpt lat="45.61161" lon="4.72495">
        <ele>376.3</ele>
        <time>2011-06-07T18:09:11Z</time>
      </trkpt>
      <trkpt lat="45.61163" lon="4.72501">
        <ele>375.3</ele>
        <time>2011-06-07T18:09:13Z</time>
      </trkpt>
      <trkpt lat="45.61165" lon="4.72507">
        <ele>375.7</ele>
        <time>2011-06-07T18:09:15Z</time>
      </trkpt>
      <trkpt lat="45.61167" lon="4.72514">
        <ele>375</ele>
        <time>2011-06-07T18:09:17Z</time>
      </trkpt>
      <trkpt lat="45.61169" lon="4.72521">
        <ele>374.4</ele>
        <time>2011-06-07T18:09:19Z</time>
      </trkpt>
      <trkpt lat="45.6117" lon="4.72528">
        <ele>373.8</ele>
        <time>2011-06-07T18:09:21Z</time>
      </trkpt>
      <trkpt lat="45.61171" lon="4.72535">
        <ele>375.8</ele>
        <time>2011-06-07T18:09:23Z</time>
      </trkpt>
      <trkpt lat="45.61173" lon="4.72542">
        <ele>375.6</ele>
        <time>2011-06-07T18:09:25Z</time>
      </trkpt>
      <trkpt lat="45.61174" lon="4.72549">
        <ele>375.3</ele>
        <time>2011-06-07T18:09:27Z</time>
      </trkpt>
      <trkpt lat="45.61175" lon="4.72556">
        <ele>375</ele>
        <time>2011-06-07T18:09:29Z</time>
      </trkpt>
      <trkpt lat="45.61177" lon="4.72564">
        <ele>374.8</ele>
        <time>2011-06-07T18:09:31Z</time>
      </trkpt>
      <trkpt lat="45.61178" lon="4.72571">
        <ele>373.7</ele>
        <time>2011-06-07T18:09:33Z</time>
      </trkpt>
      <trkpt lat="45.61179" lon="4.72579">
        <ele>373.6</ele>
        <time>2011-06-07T18:09:35Z</time>
      </trkpt>
      <trkpt lat="45.61181" lon="4.72585">
        <ele>373.1</ele>
        <time>2011-06-07T18:09:37Z</time>
      </trkpt>
      <trkpt lat="45.61183" lon="4.72591">
        <ele>372.8</ele>
        <time>2011-06-07T18:09:39Z</time>
      </trkpt>
      <trkpt lat="45.61186" lon="4.72597">
        <ele>371.7</ele>
        <time>2011-06-07T18:09:41Z</time>
      </trkpt>
      <trkpt lat="45.61188" lon="4.72602">
        <ele>371.5</ele>
        <time>2011-06-07T18:09:43Z</time>
      </trkpt>
      <trkpt lat="45.6119" lon="4.72608">
        <ele>371.2</ele>
        <time>2011-06-07T18:09:45Z</time>
      </trkpt>
      <trkpt lat="45.61191" lon="4.72616">
        <ele>371</ele>
        <time>2011-06-07T18:09:47Z</time>
      </trkpt>
      <trkpt lat="45.61192" lon="4.72623">
        <ele>371.6</ele>
        <time>2011-06-07T18:09:49Z</time>
      </trkpt>
      <trkpt lat="45.61192" lon="4.7263">
        <ele>370.9</ele>
        <time>2011-06-07T18:09:51Z</time>
      </trkpt>
      <trkpt lat="45.61194" lon="4.72638">
        <ele>367.8</ele>
        <time>2011-06-07T18:09:54Z</time>
      </trkpt>
      <trkpt lat="45.61193" lon="4.72645">
        <ele>366.8</ele>
        <time>2011-06-07T18:09:57Z</time>
      </trkpt>
      <trkpt lat="45.61188" lon="4.72651">
        <ele>366.2</ele>
        <time>2011-06-07T18:10:00Z</time>
      </trkpt>
      <trkpt lat="45.61182" lon="4.72652">
        <ele>366.8</ele>
        <time>2011-06-07T18:10:02Z</time>
      </trkpt>
      <trkpt lat="45.61177" lon="4.72654">
        <ele>366.7</ele>
        <time>2011-06-07T18:10:04Z</time>
      </trkpt>
      <trkpt lat="45.61171" lon="4.72656">
        <ele>365.9</ele>
        <time>2011-06-07T18:10:07Z</time>
      </trkpt>
      <trkpt lat="45.61165" lon="4.72658">
        <ele>365.8</ele>
        <time>2011-06-07T18:10:10Z</time>
      </trkpt>
      <trkpt lat="45.61159" lon="4.7266">
        <ele>366.2</ele>
        <time>2011-06-07T18:10:13Z</time>
      </trkpt>
      <trkpt lat="45.61153" lon="4.72663">
        <ele>366.9</ele>
        <time>2011-06-07T18:10:16Z</time>
      </trkpt>
      <trkpt lat="45.61147" lon="4.72667">
        <ele>369</ele>
        <time>2011-06-07T18:10:19Z</time>
      </trkpt>
      <trkpt lat="45.61142" lon="4.7267">
        <ele>369.9</ele>
        <time>2011-06-07T18:10:21Z</time>
      </trkpt>
      <trkpt lat="45.61136" lon="4.72673">
        <ele>370.1</ele>
        <time>2011-06-07T18:10:24Z</time>
      </trkpt>
      <trkpt lat="45.61129" lon="4.72675">
        <ele>369.8</ele>
        <time>2011-06-07T18:10:27Z</time>
      </trkpt>
      <trkpt lat="45.61123" lon="4.72676">
        <ele>372.1</ele>
        <time>2011-06-07T18:10:30Z</time>
      </trkpt>
      <trkpt lat="45.61117" lon="4.7268">
        <ele>373.3</ele>
        <time>2011-06-07T18:10:33Z</time>
      </trkpt>
      <trkpt lat="45.61111" lon="4.72684">
        <ele>374.4</ele>
        <time>2011-06-07T18:10:36Z</time>
      </trkpt>
      <trkpt lat="45.61106" lon="4.72687">
        <ele>376.3</ele>
        <time>2011-06-07T18:10:39Z</time>
      </trkpt>
      <trkpt lat="45.611" lon="4.72689">
        <ele>377.3</ele>
        <time>2011-06-07T18:10:42Z</time>
      </trkpt>
      <trkpt lat="45.61094" lon="4.72693">
        <ele>377.8</ele>
        <time>2011-06-07T18:10:45Z</time>
      </trkpt>
      <trkpt lat="45.61088" lon="4.72697">
        <ele>378.6</ele>
        <time>2011-06-07T18:10:48Z</time>
      </trkpt>
      <trkpt lat="45.61083" lon="4.72699">
        <ele>378.8</ele>
        <time>2011-06-07T18:10:51Z</time>
      </trkpt>
      <trkpt lat="45.61078" lon="4.72702">
        <ele>380.1</ele>
        <time>2011-06-07T18:10:54Z</time>
      </trkpt>
      <trkpt lat="45.61074" lon="4.72704">
        <ele>379.5</ele>
        <time>2011-06-07T18:10:56Z</time>
      </trkpt>
      <trkpt lat="45.61069" lon="4.72707">
        <ele>378.8</ele>
        <time>2011-06-07T18:10:59Z</time>
      </trkpt>
      <trkpt lat="45.61064" lon="4.7271">
        <ele>378.2</ele>
        <time>2011-06-07T18:11:02Z</time>
      </trkpt>
      <trkpt lat="45.61059" lon="4.72712">
        <ele>377.5</ele>
        <time>2011-06-07T18:11:05Z</time>
      </trkpt>
      <trkpt lat="45.61053" lon="4.72715">
        <ele>376.9</ele>
        <time>2011-06-07T18:11:08Z</time>
      </trkpt>
      <trkpt lat="45.61047" lon="4.72717">
        <ele>376.6</ele>
        <time>2011-06-07T18:11:11Z</time>
      </trkpt>
      <trkpt lat="45.61042" lon="4.7272">
        <ele>376.5</ele>
        <time>2011-06-07T18:11:14Z</time>
      </trkpt>
      <trkpt lat="45.61037" lon="4.72722">
        <ele>376.5</ele>
        <time>2011-06-07T18:11:16Z</time>
      </trkpt>
      <trkpt lat="45.61031" lon="4.72727">
        <ele>377.2</ele>
        <time>2011-06-07T18:11:19Z</time>
      </trkpt>
      <trkpt lat="45.61025" lon="4.7273">
        <ele>377.3</ele>
        <time>2011-06-07T18:11:22Z</time>
      </trkpt>
      <trkpt lat="45.61019" lon="4.72734">
        <ele>377.7</ele>
        <time>2011-06-07T18:11:25Z</time>
      </trkpt>
      <trkpt lat="45.61014" lon="4.72735">
        <ele>378.6</ele>
        <time>2011-06-07T18:11:28Z</time>
      </trkpt>
      <trkpt lat="45.61009" lon="4.72736">
        <ele>378.6</ele>
        <time>2011-06-07T18:11:30Z</time>
      </trkpt>
      <trkpt lat="45.61003" lon="4.72737">
        <ele>379.4</ele>
        <time>2011-06-07T18:11:33Z</time>
      </trkpt>
      <trkpt lat="45.60996" lon="4.72737">
        <ele>379.3</ele>
        <time>2011-06-07T18:11:36Z</time>
      </trkpt>
      <trkpt lat="45.6099" lon="4.72738">
        <ele>379.6</ele>
        <time>2011-06-07T18:11:38Z</time>
      </trkpt>
      <trkpt lat="45.60984" lon="4.7274">
        <ele>380.4</ele>
        <time>2011-06-07T18:11:41Z</time>
      </trkpt>
      <trkpt lat="45.6098" lon="4.72742">
        <ele>381.1</ele>
        <time>2011-06-07T18:11:43Z</time>
      </trkpt>
      <trkpt lat="45.60975" lon="4.72744">
        <ele>380.5</ele>
        <time>2011-06-07T18:11:46Z</time>
      </trkpt>
      <trkpt lat="45.60969" lon="4.72747">
        <ele>380.5</ele>
        <time>2011-06-07T18:11:49Z</time>
      </trkpt>
      <trkpt lat="45.60963" lon="4.72749">
        <ele>380.7</ele>
        <time>2011-06-07T18:11:52Z</time>
      </trkpt>
      <trkpt lat="45.60959" lon="4.7275">
        <ele>382</ele>
        <time>2011-06-07T18:11:54Z</time>
      </trkpt>
      <trkpt lat="45.60952" lon="4.72754">
        <ele>381.9</ele>
        <time>2011-06-07T18:11:57Z</time>
      </trkpt>
      <trkpt lat="45.60947" lon="4.72755">
        <ele>382</ele>
        <time>2011-06-07T18:11:59Z</time>
      </trkpt>
      <trkpt lat="45.60941" lon="4.72755">
        <ele>381.5</ele>
        <time>2011-06-07T18:12:02Z</time>
      </trkpt>
      <trkpt lat="45.60936" lon="4.72758">
        <ele>383.4</ele>
        <time>2011-06-07T18:12:04Z</time>
      </trkpt>
      <trkpt lat="45.60931" lon="4.7276">
        <ele>384.9</ele>
        <time>2011-06-07T18:12:06Z</time>
      </trkpt>
      <trkpt lat="45.60926" lon="4.72762">
        <ele>385.4</ele>
        <time>2011-06-07T18:12:08Z</time>
      </trkpt>
      <trkpt lat="45.60921" lon="4.7276">
        <ele>383.9</ele>
        <time>2011-06-07T18:12:11Z</time>
      </trkpt>
      <trkpt lat="45.60914" lon="4.72762">
        <ele>383.7</ele>
        <time>2011-06-07T18:12:14Z</time>
      </trkpt>
      <trkpt lat="45.60909" lon="4.72765">
        <ele>384.1</ele>
        <time>2011-06-07T18:12:16Z</time>
      </trkpt>
      <trkpt lat="45.60903" lon="4.72768">
        <ele>385.5</ele>
        <time>2011-06-07T18:12:19Z</time>
      </trkpt>
      <trkpt lat="45.60896" lon="4.72772">
        <ele>385.3</ele>
        <time>2011-06-07T18:12:22Z</time>
      </trkpt>
      <trkpt lat="45.6089" lon="4.72775">
        <ele>384.7</ele>
        <time>2011-06-07T18:12:24Z</time>
      </trkpt>
      <trkpt lat="45.60884" lon="4.72779">
        <ele>384.2</ele>
        <time>2011-06-07T18:12:27Z</time>
      </trkpt>
      <trkpt lat="45.6088" lon="4.72784">
        <ele>384.2</ele>
        <time>2011-06-07T18:12:29Z</time>
      </trkpt>
      <trkpt lat="45.60875" lon="4.7279">
        <ele>384.3</ele>
        <time>2011-06-07T18:12:32Z</time>
      </trkpt>
      <trkpt lat="45.60869" lon="4.72798">
        <ele>384.5</ele>
        <time>2011-06-07T18:12:35Z</time>
      </trkpt>
      <trkpt lat="45.60866" lon="4.72802">
        <ele>384.6</ele>
        <time>2011-06-07T18:12:37Z</time>
      </trkpt>
      <trkpt lat="45.6086" lon="4.7281">
        <ele>383.6</ele>
        <time>2011-06-07T18:12:40Z</time>
      </trkpt>
      <trkpt lat="45.60855" lon="4.72817">
        <ele>383.3</ele>
        <time>2011-06-07T18:12:43Z</time>
      </trkpt>
      <trkpt lat="45.60851" lon="4.72822">
        <ele>383.3</ele>
        <time>2011-06-07T18:12:45Z</time>
      </trkpt>
      <trkpt lat="45.60848" lon="4.72826">
        <ele>382.9</ele>
        <time>2011-06-07T18:12:47Z</time>
      </trkpt>
      <trkpt lat="45.60844" lon="4.72833">
        <ele>383</ele>
        <time>2011-06-07T18:12:50Z</time>
      </trkpt>
      <trkpt lat="45.6084" lon="4.7284">
        <ele>382.9</ele>
        <time>2011-06-07T18:12:53Z</time>
      </trkpt>
      <trkpt lat="45.60835" lon="4.72846">
        <ele>382.6</ele>
        <time>2011-06-07T18:12:55Z</time>
      </trkpt>
      <trkpt lat="45.6083" lon="4.72854">
        <ele>382.5</ele>
        <time>2011-06-07T18:12:58Z</time>
      </trkpt>
      <trkpt lat="45.60826" lon="4.72862">
        <ele>382.4</ele>
        <time>2011-06-07T18:13:01Z</time>
      </trkpt>
      <trkpt lat="45.60823" lon="4.72867">
        <ele>382.7</ele>
        <time>2011-06-07T18:13:03Z</time>
      </trkpt>
      <trkpt lat="45.60822" lon="4.72873">
        <ele>382.6</ele>
        <time>2011-06-07T18:13:05Z</time>
      </trkpt>
      <trkpt lat="45.60817" lon="4.72877">
        <ele>384.4</ele>
        <time>2011-06-07T18:13:07Z</time>
      </trkpt>
      <trkpt lat="45.60812" lon="4.72883">
        <ele>384.8</ele>
        <time>2011-06-07T18:13:10Z</time>
      </trkpt>
      <trkpt lat="45.60808" lon="4.7289">
        <ele>384.3</ele>
        <time>2011-06-07T18:13:13Z</time>
      </trkpt>
      <trkpt lat="45.60805" lon="4.72895">
        <ele>384.1</ele>
        <time>2011-06-07T18:13:15Z</time>
      </trkpt>
      <trkpt lat="45.60801" lon="4.729">
        <ele>383.2</ele>
        <time>2011-06-07T18:13:17Z</time>
      </trkpt>
      <trkpt lat="45.60797" lon="4.72905">
        <ele>383.3</ele>
        <time>2011-06-07T18:13:19Z</time>
      </trkpt>
      <trkpt lat="45.60795" lon="4.7291">
        <ele>382.8</ele>
        <time>2011-06-07T18:13:21Z</time>
      </trkpt>
      <trkpt lat="45.60791" lon="4.72917">
        <ele>382.3</ele>
        <time>2011-06-07T18:13:25Z</time>
      </trkpt>
      <trkpt lat="45.60787" lon="4.72923">
        <ele>382.8</ele>
        <time>2011-06-07T18:13:28Z</time>
      </trkpt>
      <trkpt lat="45.60782" lon="4.72926">
        <ele>381.6</ele>
        <time>2011-06-07T18:13:30Z</time>
      </trkpt>
      <trkpt lat="45.60778" lon="4.7293">
        <ele>382.6</ele>
        <time>2011-06-07T18:13:32Z</time>
      </trkpt>
      <trkpt lat="45.60771" lon="4.72935">
        <ele>382.8</ele>
        <time>2011-06-07T18:13:35Z</time>
      </trkpt>
      <trkpt lat="45.60766" lon="4.72938">
        <ele>384.6</ele>
        <time>2011-06-07T18:13:37Z</time>
      </trkpt>
      <trkpt lat="45.6076" lon="4.7294">
        <ele>383.5</ele>
        <time>2011-06-07T18:13:40Z</time>
      </trkpt>
      <trkpt lat="45.60755" lon="4.72942">
        <ele>382.2</ele>
        <time>2011-06-07T18:13:42Z</time>
      </trkpt>
      <trkpt lat="45.60749" lon="4.72945">
        <ele>383</ele>
        <time>2011-06-07T18:13:45Z</time>
      </trkpt>
      <trkpt lat="45.60743" lon="4.72948">
        <ele>383.5</ele>
        <time>2011-06-07T18:13:48Z</time>
      </trkpt>
      <trkpt lat="45.60738" lon="4.72949">
        <ele>383</ele>
        <time>2011-06-07T18:13:50Z</time>
      </trkpt>
      <trkpt lat="45.60732" lon="4.72952">
        <ele>381.5</ele>
        <time>2011-06-07T18:13:53Z</time>
      </trkpt>
      <trkpt lat="45.60727" lon="4.72952">
        <ele>381.7</ele>
        <time>2011-06-07T18:13:55Z</time>
      </trkpt>
      <trkpt lat="45.60723" lon="4.72947">
        <ele>383.1</ele>
        <time>2011-06-07T18:13:58Z</time>
      </trkpt>
      <trkpt lat="45.60719" lon="4.72944">
        <ele>383</ele>
        <time>2011-06-07T18:14:00Z</time>
      </trkpt>
      <trkpt lat="45.60713" lon="4.72939">
        <ele>382.9</ele>
        <time>2011-06-07T18:14:03Z</time>
      </trkpt>
      <trkpt lat="45.6071" lon="4.72934">
        <ele>382.5</ele>
        <time>2011-06-07T18:14:05Z</time>
      </trkpt>
      <trkpt lat="45.6071" lon="4.72927">
        <ele>384.1</ele>
        <time>2011-06-07T18:14:07Z</time>
      </trkpt>
      <trkpt lat="45.6071" lon="4.72919">
        <ele>383.7</ele>
        <time>2011-06-07T18:14:09Z</time>
      </trkpt>
      <trkpt lat="45.60709" lon="4.72912">
        <ele>383</ele>
        <time>2011-06-07T18:14:11Z</time>
      </trkpt>
      <trkpt lat="45.60709" lon="4.72905">
        <ele>382.6</ele>
        <time>2011-06-07T18:14:13Z</time>
      </trkpt>
      <trkpt lat="45.60708" lon="4.72896">
        <ele>382</ele>
        <time>2011-06-07T18:14:16Z</time>
      </trkpt>
      <trkpt lat="45.60709" lon="4.72889">
        <ele>381.2</ele>
        <time>2011-06-07T18:14:18Z</time>
      </trkpt>
      <trkpt lat="45.60707" lon="4.72883">
        <ele>380.3</ele>
        <time>2011-06-07T18:14:20Z</time>
      </trkpt>
      <trkpt lat="45.60706" lon="4.72876">
        <ele>380.5</ele>
        <time>2011-06-07T18:14:22Z</time>
      </trkpt>
      <trkpt lat="45.60702" lon="4.72869">
        <ele>379.2</ele>
        <time>2011-06-07T18:14:24Z</time>
      </trkpt>
      <trkpt lat="45.60704" lon="4.72861">
        <ele>377.7</ele>
        <time>2011-06-07T18:14:26Z</time>
      </trkpt>
      <trkpt lat="45.60704" lon="4.72852">
        <ele>378.1</ele>
        <time>2011-06-07T18:14:29Z</time>
      </trkpt>
      <trkpt lat="45.60704" lon="4.72845">
        <ele>377.3</ele>
        <time>2011-06-07T18:14:31Z</time>
      </trkpt>
      <trkpt lat="45.60704" lon="4.72837">
        <ele>377</ele>
        <time>2011-06-07T18:14:33Z</time>
      </trkpt>
      <trkpt lat="45.60702" lon="4.72829">
        <ele>375.4</ele>
        <time>2011-06-07T18:14:35Z</time>
      </trkpt>
      <trkpt lat="45.60702" lon="4.7282">
        <ele>375.6</ele>
        <time>2011-06-07T18:14:38Z</time>
      </trkpt>
      <trkpt lat="45.60701" lon="4.7281">
        <ele>374.6</ele>
        <time>2011-06-07T18:14:41Z</time>
      </trkpt>
      <trkpt lat="45.60702" lon="4.72802">
        <ele>374</ele>
        <time>2011-06-07T18:14:43Z</time>
      </trkpt>
      <trkpt lat="45.60702" lon="4.72794">
        <ele>373.4</ele>
        <time>2011-06-07T18:14:45Z</time>
      </trkpt>
      <trkpt lat="45.60698" lon="4.72788">
        <ele>368.8</ele>
        <time>2011-06-07T18:14:46Z</time>
      </trkpt>
      <trkpt lat="45.60698" lon="4.72779">
        <ele>370.2</ele>
        <time>2011-06-07T18:14:49Z</time>
      </trkpt>
      <trkpt lat="45.60699" lon="4.7277">
        <ele>370.3</ele>
        <time>2011-06-07T18:14:52Z</time>
      </trkpt>
      <trkpt lat="45.60698" lon="4.72761">
        <ele>369</ele>
        <time>2011-06-07T18:14:54Z</time>
      </trkpt>
      <trkpt lat="45.60697" lon="4.72754">
        <ele>368.5</ele>
        <time>2011-06-07T18:14:56Z</time>
      </trkpt>
      <trkpt lat="45.60698" lon="4.72747">
        <ele>369.4</ele>
        <time>2011-06-07T18:14:58Z</time>
      </trkpt>
      <trkpt lat="45.60697" lon="4.7274">
        <ele>369.1</ele>
        <time>2011-06-07T18:15:00Z</time>
      </trkpt>
      <trkpt lat="45.60696" lon="4.7273">
        <ele>368.4</ele>
        <time>2011-06-07T18:15:03Z</time>
      </trkpt>
      <trkpt lat="45.60695" lon="4.72722">
        <ele>367.5</ele>
        <time>2011-06-07T18:15:05Z</time>
      </trkpt>
      <trkpt lat="45.60695" lon="4.72715">
        <ele>367.3</ele>
        <time>2011-06-07T18:15:07Z</time>
      </trkpt>
      <trkpt lat="45.60694" lon="4.72706">
        <ele>369</ele>
        <time>2011-06-07T18:15:10Z</time>
      </trkpt>
      <trkpt lat="45.60694" lon="4.72699">
        <ele>368.3</ele>
        <time>2011-06-07T18:15:12Z</time>
      </trkpt>
      <trkpt lat="45.60693" lon="4.7269">
        <ele>368.4</ele>
        <time>2011-06-07T18:15:15Z</time>
      </trkpt>
      <trkpt lat="45.60692" lon="4.72682">
        <ele>368.4</ele>
        <time>2011-06-07T18:15:17Z</time>
      </trkpt>
      <trkpt lat="45.6069" lon="4.72673">
        <ele>367.6</ele>
        <time>2011-06-07T18:15:19Z</time>
      </trkpt>
      <trkpt lat="45.6069" lon="4.72666">
        <ele>366.8</ele>
        <time>2011-06-07T18:15:21Z</time>
      </trkpt>
      <trkpt lat="45.6069" lon="4.72659">
        <ele>365.8</ele>
        <time>2011-06-07T18:15:23Z</time>
      </trkpt>
      <trkpt lat="45.6069" lon="4.72652">
        <ele>366.3</ele>
        <time>2011-06-07T18:15:25Z</time>
      </trkpt>
      <trkpt lat="45.60689" lon="4.72645">
        <ele>364.8</ele>
        <time>2011-06-07T18:15:27Z</time>
      </trkpt>
      <trkpt lat="45.60689" lon="4.72638">
        <ele>364</ele>
        <time>2011-06-07T18:15:29Z</time>
      </trkpt>
      <trkpt lat="45.60689" lon="4.72632">
        <ele>364.3</ele>
        <time>2011-06-07T18:15:31Z</time>
      </trkpt>
      <trkpt lat="45.60689" lon="4.72624">
        <ele>362.8</ele>
        <time>2011-06-07T18:15:33Z</time>
      </trkpt>
      <trkpt lat="45.60688" lon="4.72617">
        <ele>363</ele>
        <time>2011-06-07T18:15:35Z</time>
      </trkpt>
      <trkpt lat="45.60688" lon="4.7261">
        <ele>362.4</ele>
        <time>2011-06-07T18:15:37Z</time>
      </trkpt>
      <trkpt lat="45.60688" lon="4.72602">
        <ele>362.3</ele>
        <time>2011-06-07T18:15:39Z</time>
      </trkpt>
      <trkpt lat="45.60691" lon="4.72595">
        <ele>364.9</ele>
        <time>2011-06-07T18:15:41Z</time>
      </trkpt>
      <trkpt lat="45.60692" lon="4.72588">
        <ele>366.3</ele>
        <time>2011-06-07T18:15:43Z</time>
      </trkpt>
      <trkpt lat="45.60693" lon="4.72579">
        <ele>367</ele>
        <time>2011-06-07T18:15:46Z</time>
      </trkpt>
      <trkpt lat="45.60694" lon="4.72573">
        <ele>367.1</ele>
        <time>2011-06-07T18:15:48Z</time>
      </trkpt>
      <trkpt lat="45.60696" lon="4.72564">
        <ele>367.9</ele>
        <time>2011-06-07T18:15:51Z</time>
      </trkpt>
      <trkpt lat="45.60698" lon="4.72556">
        <ele>367.5</ele>
        <time>2011-06-07T18:15:54Z</time>
      </trkpt>
      <trkpt lat="45.60699" lon="4.72549">
        <ele>367.3</ele>
        <time>2011-06-07T18:15:56Z</time>
      </trkpt>
      <trkpt lat="45.60702" lon="4.7254">
        <ele>366.9</ele>
        <time>2011-06-07T18:15:59Z</time>
      </trkpt>
      <trkpt lat="45.60701" lon="4.7253">
        <ele>367.4</ele>
        <time>2011-06-07T18:16:02Z</time>
      </trkpt>
      <trkpt lat="45.60702" lon="4.72523">
        <ele>366.9</ele>
        <time>2011-06-07T18:16:04Z</time>
      </trkpt>
      <trkpt lat="45.60702" lon="4.72514">
        <ele>366.5</ele>
        <time>2011-06-07T18:16:06Z</time>
      </trkpt>
      <trkpt lat="45.60701" lon="4.72506">
        <ele>367</ele>
        <time>2011-06-07T18:16:08Z</time>
      </trkpt>
      <trkpt lat="45.60702" lon="4.725">
        <ele>366.1</ele>
        <time>2011-06-07T18:16:10Z</time>
      </trkpt>
      <trkpt lat="45.60702" lon="4.72493">
        <ele>366.6</ele>
        <time>2011-06-07T18:16:12Z</time>
      </trkpt>
      <trkpt lat="45.60702" lon="4.72485">
        <ele>367.3</ele>
        <time>2011-06-07T18:16:14Z</time>
      </trkpt>
      <trkpt lat="45.60701" lon="4.72475">
        <ele>367.8</ele>
        <time>2011-06-07T18:16:17Z</time>
      </trkpt>
      <trkpt lat="45.60703" lon="4.72468">
        <ele>368</ele>
        <time>2011-06-07T18:16:19Z</time>
      </trkpt>
      <trkpt lat="45.60703" lon="4.7246">
        <ele>368.5</ele>
        <time>2011-06-07T18:16:22Z</time>
      </trkpt>
      <trkpt lat="45.60702" lon="4.72451">
        <ele>368.8</ele>
        <time>2011-06-07T18:16:25Z</time>
      </trkpt>
      <trkpt lat="45.60704" lon="4.72444">
        <ele>369</ele>
        <time>2011-06-07T18:16:27Z</time>
      </trkpt>
      <trkpt lat="45.60702" lon="4.72436">
        <ele>364.7</ele>
        <time>2011-06-07T18:16:29Z</time>
      </trkpt>
      <trkpt lat="45.60703" lon="4.7243">
        <ele>365.6</ele>
        <time>2011-06-07T18:16:31Z</time>
      </trkpt>
      <trkpt lat="45.60703" lon="4.72416">
        <ele>366.1</ele>
        <time>2011-06-07T18:16:35Z</time>
      </trkpt>
      <trkpt lat="45.60705" lon="4.7241">
        <ele>364.8</ele>
        <time>2011-06-07T18:16:37Z</time>
      </trkpt>
      <trkpt lat="45.60705" lon="4.72403">
        <ele>364.5</ele>
        <time>2011-06-07T18:16:39Z</time>
      </trkpt>
      <trkpt lat="45.60707" lon="4.72396">
        <ele>365</ele>
        <time>2011-06-07T18:16:41Z</time>
      </trkpt>
      <trkpt lat="45.60708" lon="4.72389">
        <ele>365</ele>
        <time>2011-06-07T18:16:43Z</time>
      </trkpt>
      <trkpt lat="45.6071" lon="4.72382">
        <ele>365</ele>
        <time>2011-06-07T18:16:45Z</time>
      </trkpt>
      <trkpt lat="45.60712" lon="4.72374">
        <ele>366</ele>
        <time>2011-06-07T18:16:47Z</time>
      </trkpt>
      <trkpt lat="45.60715" lon="4.72369">
        <ele>365.9</ele>
        <time>2011-06-07T18:16:49Z</time>
      </trkpt>
      <trkpt lat="45.60716" lon="4.72362">
        <ele>365.6</ele>
        <time>2011-06-07T18:16:51Z</time>
      </trkpt>
      <trkpt lat="45.60717" lon="4.72354">
        <ele>366.7</ele>
        <time>2011-06-07T18:16:54Z</time>
      </trkpt>
      <trkpt lat="45.60723" lon="4.7235">
        <ele>366.1</ele>
        <time>2011-06-07T18:16:56Z</time>
      </trkpt>
      <trkpt lat="45.60724" lon="4.72342">
        <ele>367.7</ele>
        <time>2011-06-07T18:16:59Z</time>
      </trkpt>
      <trkpt lat="45.60728" lon="4.72336">
        <ele>368.4</ele>
        <time>2011-06-07T18:17:02Z</time>
      </trkpt>
      <trkpt lat="45.60731" lon="4.72332">
        <ele>369.6</ele>
        <time>2011-06-07T18:17:04Z</time>
      </trkpt>
      <trkpt lat="45.60735" lon="4.72327">
        <ele>369.9</ele>
        <time>2011-06-07T18:17:07Z</time>
      </trkpt>
      <trkpt lat="45.6074" lon="4.72324">
        <ele>369.6</ele>
        <time>2011-06-07T18:17:09Z</time>
      </trkpt>
      <trkpt lat="45.60743" lon="4.72319">
        <ele>370.6</ele>
        <time>2011-06-07T18:17:11Z</time>
      </trkpt>
      <trkpt lat="45.60747" lon="4.72316">
        <ele>370.8</ele>
        <time>2011-06-07T18:17:13Z</time>
      </trkpt>
      <trkpt lat="45.6075" lon="4.72312">
        <ele>370.6</ele>
        <time>2011-06-07T18:17:15Z</time>
      </trkpt>
      <trkpt lat="45.60755" lon="4.72307">
        <ele>369.6</ele>
        <time>2011-06-07T18:17:17Z</time>
      </trkpt>
      <trkpt lat="45.6076" lon="4.72303">
        <ele>369.2</ele>
        <time>2011-06-07T18:17:19Z</time>
      </trkpt>
      <trkpt lat="45.60764" lon="4.72298">
        <ele>371.3</ele>
        <time>2011-06-07T18:17:22Z</time>
      </trkpt>
      <trkpt lat="45.60768" lon="4.72293">
        <ele>373.7</ele>
        <time>2011-06-07T18:17:25Z</time>
      </trkpt>
      <trkpt lat="45.6077" lon="4.72287">
        <ele>374.3</ele>
        <time>2011-06-07T18:17:27Z</time>
      </trkpt>
      <trkpt lat="45.60772" lon="4.72279">
        <ele>374</ele>
        <time>2011-06-07T18:17:30Z</time>
      </trkpt>
      <trkpt lat="45.60775" lon="4.72273">
        <ele>374.3</ele>
        <time>2011-06-07T18:17:32Z</time>
      </trkpt>
      <trkpt lat="45.60777" lon="4.72263">
        <ele>374.7</ele>
        <time>2011-06-07T18:17:35Z</time>
      </trkpt>
      <trkpt lat="45.60779" lon="4.72257">
        <ele>374.3</ele>
        <time>2011-06-07T18:17:37Z</time>
      </trkpt>
      <trkpt lat="45.60781" lon="4.72251">
        <ele>376</ele>
        <time>2011-06-07T18:17:40Z</time>
      </trkpt>
      <trkpt lat="45.60781" lon="4.72241">
        <ele>376.4</ele>
        <time>2011-06-07T18:17:43Z</time>
      </trkpt>
      <trkpt lat="45.60783" lon="4.72234">
        <ele>377.5</ele>
        <time>2011-06-07T18:17:45Z</time>
      </trkpt>
      <trkpt lat="45.60783" lon="4.72227">
        <ele>376.5</ele>
        <time>2011-06-07T18:17:47Z</time>
      </trkpt>
      <trkpt lat="45.60784" lon="4.7222">
        <ele>376.1</ele>
        <time>2011-06-07T18:17:49Z</time>
      </trkpt>
      <trkpt lat="45.60785" lon="4.72214">
        <ele>376.3</ele>
        <time>2011-06-07T18:17:51Z</time>
      </trkpt>
      <trkpt lat="45.60786" lon="4.72204">
        <ele>376.4</ele>
        <time>2011-06-07T18:17:54Z</time>
      </trkpt>
      <trkpt lat="45.60787" lon="4.72196">
        <ele>375.8</ele>
        <time>2011-06-07T18:17:56Z</time>
      </trkpt>
      <trkpt lat="45.60788" lon="4.72189">
        <ele>375.4</ele>
        <time>2011-06-07T18:17:58Z</time>
      </trkpt>
      <trkpt lat="45.60788" lon="4.72181">
        <ele>373.9</ele>
        <time>2011-06-07T18:18:00Z</time>
      </trkpt>
      <trkpt lat="45.60789" lon="4.72175">
        <ele>373.3</ele>
        <time>2011-06-07T18:18:02Z</time>
      </trkpt>
      <trkpt lat="45.6079" lon="4.72165">
        <ele>373.8</ele>
        <time>2011-06-07T18:18:05Z</time>
      </trkpt>
      <trkpt lat="45.60791" lon="4.72156">
        <ele>373.3</ele>
        <time>2011-06-07T18:18:08Z</time>
      </trkpt>
      <trkpt lat="45.60792" lon="4.72149">
        <ele>373</ele>
        <time>2011-06-07T18:18:10Z</time>
      </trkpt>
      <trkpt lat="45.60794" lon="4.72143">
        <ele>373.8</ele>
        <time>2011-06-07T18:18:12Z</time>
      </trkpt>
      <trkpt lat="45.60795" lon="4.72134">
        <ele>373.2</ele>
        <time>2011-06-07T18:18:15Z</time>
      </trkpt>
      <trkpt lat="45.60797" lon="4.72126">
        <ele>373.3</ele>
        <time>2011-06-07T18:18:17Z</time>
      </trkpt>
      <trkpt lat="45.60798" lon="4.72118">
        <ele>372.8</ele>
        <time>2011-06-07T18:18:19Z</time>
      </trkpt>
      <trkpt lat="45.60799" lon="4.7211">
        <ele>372.5</ele>
        <time>2011-06-07T18:18:21Z</time>
      </trkpt>
      <trkpt lat="45.60801" lon="4.72104">
        <ele>372.7</ele>
        <time>2011-06-07T18:18:23Z</time>
      </trkpt>
      <trkpt lat="45.608" lon="4.72095">
        <ele>372.8</ele>
        <time>2011-06-07T18:18:26Z</time>
      </trkpt>
      <trkpt lat="45.60801" lon="4.72088">
        <ele>372.8</ele>
        <time>2011-06-07T18:18:28Z</time>
      </trkpt>
      <trkpt lat="45.60801" lon="4.7208">
        <ele>371.1</ele>
        <time>2011-06-07T18:18:30Z</time>
      </trkpt>
      <trkpt lat="45.60801" lon="4.72073">
        <ele>371.8</ele>
        <time>2011-06-07T18:18:32Z</time>
      </trkpt>
      <trkpt lat="45.60803" lon="4.72063">
        <ele>372.2</ele>
        <time>2011-06-07T18:18:35Z</time>
      </trkpt>
      <trkpt lat="45.60803" lon="4.72056">
        <ele>372.9</ele>
        <time>2011-06-07T18:18:37Z</time>
      </trkpt>
      <trkpt lat="45.60805" lon="4.72048">
        <ele>374.4</ele>
        <time>2011-06-07T18:18:40Z</time>
      </trkpt>
      <trkpt lat="45.60804" lon="4.72038">
        <ele>374.6</ele>
        <time>2011-06-07T18:18:43Z</time>
      </trkpt>
      <trkpt lat="45.60806" lon="4.72028">
        <ele>374.7</ele>
        <time>2011-06-07T18:18:46Z</time>
      </trkpt>
      <trkpt lat="45.60805" lon="4.7202">
        <ele>374.6</ele>
        <time>2011-06-07T18:18:48Z</time>
      </trkpt>
      <trkpt lat="45.60805" lon="4.72011">
        <ele>374.2</ele>
        <time>2011-06-07T18:18:51Z</time>
      </trkpt>
      <trkpt lat="45.60807" lon="4.72005">
        <ele>374.1</ele>
        <time>2011-06-07T18:18:53Z</time>
      </trkpt>
      <trkpt lat="45.6081" lon="4.71998">
        <ele>373</ele>
        <time>2011-06-07T18:18:55Z</time>
      </trkpt>
      <trkpt lat="45.60811" lon="4.71992">
        <ele>373.1</ele>
        <time>2011-06-07T18:18:57Z</time>
      </trkpt>
      <trkpt lat="45.60812" lon="4.71985">
        <ele>373</ele>
        <time>2011-06-07T18:18:59Z</time>
      </trkpt>
      <trkpt lat="45.60812" lon="4.71978">
        <ele>371.1</ele>
        <time>2011-06-07T18:19:01Z</time>
      </trkpt>
      <trkpt lat="45.60812" lon="4.71971">
        <ele>370.5</ele>
        <time>2011-06-07T18:19:03Z</time>
      </trkpt>
      <trkpt lat="45.60813" lon="4.71964">
        <ele>370.2</ele>
        <time>2011-06-07T18:19:05Z</time>
      </trkpt>
      <trkpt lat="45.60814" lon="4.71956">
        <ele>370.2</ele>
        <time>2011-06-07T18:19:07Z</time>
      </trkpt>
      <trkpt lat="45.60813" lon="4.71949">
        <ele>370.1</ele>
        <time>2011-06-07T18:19:09Z</time>
      </trkpt>
      <trkpt lat="45.60816" lon="4.71941">
        <ele>371.1</ele>
        <time>2011-06-07T18:19:12Z</time>
      </trkpt>
      <trkpt lat="45.60818" lon="4.71932">
        <ele>371.8</ele>
        <time>2011-06-07T18:19:15Z</time>
      </trkpt>
      <trkpt lat="45.6082" lon="4.71924">
        <ele>371.8</ele>
        <time>2011-06-07T18:19:18Z</time>
      </trkpt>
      <trkpt lat="45.60821" lon="4.71915">
        <ele>372.6</ele>
        <time>2011-06-07T18:19:21Z</time>
      </trkpt>
      <trkpt lat="45.60824" lon="4.71908">
        <ele>370.1</ele>
        <time>2011-06-07T18:19:23Z</time>
      </trkpt>
      <trkpt lat="45.60826" lon="4.719">
        <ele>369.2</ele>
        <time>2011-06-07T18:19:26Z</time>
      </trkpt>
      <trkpt lat="45.60829" lon="4.71893">
        <ele>368.5</ele>
        <time>2011-06-07T18:19:29Z</time>
      </trkpt>
      <trkpt lat="45.60827" lon="4.71886">
        <ele>363.8</ele>
        <time>2011-06-07T18:19:30Z</time>
      </trkpt>
      <trkpt lat="45.6083" lon="4.71878">
        <ele>362.6</ele>
        <time>2011-06-07T18:19:33Z</time>
      </trkpt>
      <trkpt lat="45.60833" lon="4.71869">
        <ele>362.9</ele>
        <time>2011-06-07T18:19:36Z</time>
      </trkpt>
      <trkpt lat="45.60837" lon="4.71864">
        <ele>364.7</ele>
        <time>2011-06-07T18:19:39Z</time>
      </trkpt>
      <trkpt lat="45.60839" lon="4.71855">
        <ele>363.5</ele>
        <time>2011-06-07T18:19:42Z</time>
      </trkpt>
      <trkpt lat="45.6084" lon="4.71846">
        <ele>362.7</ele>
        <time>2011-06-07T18:19:45Z</time>
      </trkpt>
      <trkpt lat="45.60844" lon="4.7184">
        <ele>363.7</ele>
        <time>2011-06-07T18:19:48Z</time>
      </trkpt>
      <trkpt lat="45.60848" lon="4.71832">
        <ele>364.6</ele>
        <time>2011-06-07T18:19:51Z</time>
      </trkpt>
      <trkpt lat="45.6085" lon="4.71824">
        <ele>363.8</ele>
        <time>2011-06-07T18:19:54Z</time>
      </trkpt>
      <trkpt lat="45.60853" lon="4.71818">
        <ele>363.1</ele>
        <time>2011-06-07T18:19:57Z</time>
      </trkpt>
      <trkpt lat="45.60858" lon="4.71814">
        <ele>363.4</ele>
        <time>2011-06-07T18:20:00Z</time>
      </trkpt>
      <trkpt lat="45.60862" lon="4.71809">
        <ele>362</ele>
        <time>2011-06-07T18:20:01Z</time>
      </trkpt>
      <trkpt lat="45.60865" lon="4.71802">
        <ele>362.3</ele>
        <time>2011-06-07T18:20:04Z</time>
      </trkpt>
      <trkpt lat="45.60868" lon="4.71796">
        <ele>361.8</ele>
        <time>2011-06-07T18:20:06Z</time>
      </trkpt>
      <trkpt lat="45.60871" lon="4.71788">
        <ele>361.3</ele>
        <time>2011-06-07T18:20:08Z</time>
      </trkpt>
      <trkpt lat="45.60873" lon="4.71782">
        <ele>361.1</ele>
        <time>2011-06-07T18:20:10Z</time>
      </trkpt>
      <trkpt lat="45.60875" lon="4.71773">
        <ele>361.2</ele>
        <time>2011-06-07T18:20:12Z</time>
      </trkpt>
      <trkpt lat="45.60876" lon="4.71766">
        <ele>361</ele>
        <time>2011-06-07T18:20:14Z</time>
      </trkpt>
      <trkpt lat="45.60877" lon="4.71759">
        <ele>361.3</ele>
        <time>2011-06-07T18:20:16Z</time>
      </trkpt>
      <trkpt lat="45.60877" lon="4.71752">
        <ele>362.6</ele>
        <time>2011-06-07T18:20:18Z</time>
      </trkpt>
      <trkpt lat="45.60876" lon="4.71745">
        <ele>363.4</ele>
        <time>2011-06-07T18:20:20Z</time>
      </trkpt>
      <trkpt lat="45.60876" lon="4.71738">
        <ele>363.4</ele>
        <time>2011-06-07T18:20:22Z</time>
      </trkpt>
      <trkpt lat="45.60875" lon="4.71731">
        <ele>363.9</ele>
        <time>2011-06-07T18:20:24Z</time>
      </trkpt>
      <trkpt lat="45.60875" lon="4.71725">
        <ele>364.4</ele>
        <time>2011-06-07T18:20:26Z</time>
      </trkpt>
      <trkpt lat="45.60876" lon="4.71718">
        <ele>364.4</ele>
        <time>2011-06-07T18:20:29Z</time>
      </trkpt>
      <trkpt lat="45.60876" lon="4.71709">
        <ele>369.6</ele>
        <time>2011-06-07T18:20:33Z</time>
      </trkpt>
      <trkpt lat="45.60877" lon="4.71701">
        <ele>371.4</ele>
        <time>2011-06-07T18:20:36Z</time>
      </trkpt>
      <trkpt lat="45.60877" lon="4.71695">
        <ele>372.5</ele>
        <time>2011-06-07T18:20:38Z</time>
      </trkpt>
      <trkpt lat="45.60877" lon="4.71686">
        <ele>375.5</ele>
        <time>2011-06-07T18:20:41Z</time>
      </trkpt>
      <trkpt lat="45.60877" lon="4.71678">
        <ele>376.8</ele>
        <time>2011-06-07T18:20:44Z</time>
      </trkpt>
      <trkpt lat="45.60879" lon="4.71672">
        <ele>377.4</ele>
        <time>2011-06-07T18:20:46Z</time>
      </trkpt>
      <trkpt lat="45.6088" lon="4.71665">
        <ele>379.7</ele>
        <time>2011-06-07T18:20:49Z</time>
      </trkpt>
      <trkpt lat="45.60882" lon="4.71656">
        <ele>380.4</ele>
        <time>2011-06-07T18:20:52Z</time>
      </trkpt>
      <trkpt lat="45.60884" lon="4.71647">
        <ele>381.2</ele>
        <time>2011-06-07T18:20:55Z</time>
      </trkpt>
      <trkpt lat="45.60885" lon="4.71639">
        <ele>381.7</ele>
        <time>2011-06-07T18:20:58Z</time>
      </trkpt>
      <trkpt lat="45.60886" lon="4.7163">
        <ele>381.3</ele>
        <time>2011-06-07T18:21:01Z</time>
      </trkpt>
      <trkpt lat="45.60888" lon="4.71623">
        <ele>380.2</ele>
        <time>2011-06-07T18:21:03Z</time>
      </trkpt>
      <trkpt lat="45.60888" lon="4.71616">
        <ele>380.2</ele>
        <time>2011-06-07T18:21:05Z</time>
      </trkpt>
      <trkpt lat="45.6089" lon="4.71607">
        <ele>380.2</ele>
        <time>2011-06-07T18:21:08Z</time>
      </trkpt>
      <trkpt lat="45.6089" lon="4.71598">
        <ele>377.2</ele>
        <time>2011-06-07T18:21:10Z</time>
      </trkpt>
      <trkpt lat="45.60891" lon="4.7159">
        <ele>375.8</ele>
        <time>2011-06-07T18:21:12Z</time>
      </trkpt>
      <trkpt lat="45.60893" lon="4.71581">
        <ele>376.3</ele>
        <time>2011-06-07T18:21:15Z</time>
      </trkpt>
      <trkpt lat="45.60895" lon="4.71575">
        <ele>375.6</ele>
        <time>2011-06-07T18:21:17Z</time>
      </trkpt>
      <trkpt lat="45.60896" lon="4.71568">
        <ele>375.6</ele>
        <time>2011-06-07T18:21:19Z</time>
      </trkpt>
      <trkpt lat="45.60898" lon="4.71562">
        <ele>375.4</ele>
        <time>2011-06-07T18:21:21Z</time>
      </trkpt>
      <trkpt lat="45.609" lon="4.71552">
        <ele>374.6</ele>
        <time>2011-06-07T18:21:24Z</time>
      </trkpt>
      <trkpt lat="45.60902" lon="4.71542">
        <ele>373.3</ele>
        <time>2011-06-07T18:21:27Z</time>
      </trkpt>
      <trkpt lat="45.60905" lon="4.71531">
        <ele>373.9</ele>
        <time>2011-06-07T18:21:30Z</time>
      </trkpt>
      <trkpt lat="45.60904" lon="4.71525">
        <ele>372.5</ele>
        <time>2011-06-07T18:21:32Z</time>
      </trkpt>
      <trkpt lat="45.60906" lon="4.71514">
        <ele>371.1</ele>
        <time>2011-06-07T18:21:35Z</time>
      </trkpt>
      <trkpt lat="45.60906" lon="4.71506">
        <ele>370.9</ele>
        <time>2011-06-07T18:21:37Z</time>
      </trkpt>
      <trkpt lat="45.60907" lon="4.71498">
        <ele>371.4</ele>
        <time>2011-06-07T18:21:40Z</time>
      </trkpt>
      <trkpt lat="45.60908" lon="4.71488">
        <ele>371.6</ele>
        <time>2011-06-07T18:21:43Z</time>
      </trkpt>
      <trkpt lat="45.60908" lon="4.71479">
        <ele>371.4</ele>
        <time>2011-06-07T18:21:46Z</time>
      </trkpt>
      <trkpt lat="45.60908" lon="4.71472">
        <ele>372</ele>
        <time>2011-06-07T18:21:48Z</time>
      </trkpt>
      <trkpt lat="45.60908" lon="4.71465">
        <ele>371.4</ele>
        <time>2011-06-07T18:21:50Z</time>
      </trkpt>
      <trkpt lat="45.60907" lon="4.71457">
        <ele>371.7</ele>
        <time>2011-06-07T18:21:52Z</time>
      </trkpt>
      <trkpt lat="45.60907" lon="4.71448">
        <ele>372.9</ele>
        <time>2011-06-07T18:21:55Z</time>
      </trkpt>
      <trkpt lat="45.60906" lon="4.71438">
        <ele>372.2</ele>
        <time>2011-06-07T18:21:58Z</time>
      </trkpt>
      <trkpt lat="45.60907" lon="4.71429">
        <ele>373.9</ele>
        <time>2011-06-07T18:22:01Z</time>
      </trkpt>
      <trkpt lat="45.60907" lon="4.71422">
        <ele>372.5</ele>
        <time>2011-06-07T18:22:03Z</time>
      </trkpt>
      <trkpt lat="45.60906" lon="4.71412">
        <ele>372.5</ele>
        <time>2011-06-07T18:22:06Z</time>
      </trkpt>
      <trkpt lat="45.60906" lon="4.71405">
        <ele>371.9</ele>
        <time>2011-06-07T18:22:08Z</time>
      </trkpt>
      <trkpt lat="45.60906" lon="4.71398">
        <ele>371.8</ele>
        <time>2011-06-07T18:22:10Z</time>
      </trkpt>
      <trkpt lat="45.60907" lon="4.7139">
        <ele>373.5</ele>
        <time>2011-06-07T18:22:13Z</time>
      </trkpt>
      <trkpt lat="45.60909" lon="4.71383">
        <ele>373.8</ele>
        <time>2011-06-07T18:22:15Z</time>
      </trkpt>
      <trkpt lat="45.60908" lon="4.71376">
        <ele>374</ele>
        <time>2011-06-07T18:22:17Z</time>
      </trkpt>
      <trkpt lat="45.60911" lon="4.7137">
        <ele>374.7</ele>
        <time>2011-06-07T18:22:19Z</time>
      </trkpt>
      <trkpt lat="45.60911" lon="4.71361">
        <ele>374.1</ele>
        <time>2011-06-07T18:22:21Z</time>
      </trkpt>
      <trkpt lat="45.60912" lon="4.71353">
        <ele>374.4</ele>
        <time>2011-06-07T18:22:24Z</time>
      </trkpt>
      <trkpt lat="45.60913" lon="4.71346">
        <ele>374.1</ele>
        <time>2011-06-07T18:22:26Z</time>
      </trkpt>
      <trkpt lat="45.60915" lon="4.7134">
        <ele>373.3</ele>
        <time>2011-06-07T18:22:28Z</time>
      </trkpt>
      <trkpt lat="45.60916" lon="4.71332">
        <ele>373</ele>
        <time>2011-06-07T18:22:30Z</time>
      </trkpt>
      <trkpt lat="45.60918" lon="4.71325">
        <ele>372.6</ele>
        <time>2011-06-07T18:22:32Z</time>
      </trkpt>
      <trkpt lat="45.60918" lon="4.71319">
        <ele>372.9</ele>
        <time>2011-06-07T18:22:34Z</time>
      </trkpt>
      <trkpt lat="45.60919" lon="4.71312">
        <ele>372.8</ele>
        <time>2011-06-07T18:22:36Z</time>
      </trkpt>
      <trkpt lat="45.6092" lon="4.71305">
        <ele>371.9</ele>
        <time>2011-06-07T18:22:38Z</time>
      </trkpt>
      <trkpt lat="45.60921" lon="4.71299">
        <ele>371.8</ele>
        <time>2011-06-07T18:22:40Z</time>
      </trkpt>
      <trkpt lat="45.60922" lon="4.71289">
        <ele>371.1</ele>
        <time>2011-06-07T18:22:43Z</time>
      </trkpt>
      <trkpt lat="45.60924" lon="4.7128">
        <ele>370.5</ele>
        <time>2011-06-07T18:22:46Z</time>
      </trkpt>
      <trkpt lat="45.60924" lon="4.71272">
        <ele>367.2</ele>
        <time>2011-06-07T18:22:48Z</time>
      </trkpt>
      <trkpt lat="45.60926" lon="4.71265">
        <ele>365.5</ele>
        <time>2011-06-07T18:22:50Z</time>
      </trkpt>
      <trkpt lat="45.60927" lon="4.71258">
        <ele>364.7</ele>
        <time>2011-06-07T18:22:52Z</time>
      </trkpt>
      <trkpt lat="45.60929" lon="4.7125">
        <ele>364</ele>
        <time>2011-06-07T18:22:55Z</time>
      </trkpt>
      <trkpt lat="45.60925" lon="4.71245">
        <ele>364.3</ele>
        <time>2011-06-07T18:22:57Z</time>
      </trkpt>
      <trkpt lat="45.60921" lon="4.71239">
        <ele>361.7</ele>
        <time>2011-06-07T18:23:01Z</time>
      </trkpt>
      <trkpt lat="45.60917" lon="4.71235">
        <ele>362</ele>
        <time>2011-06-07T18:23:04Z</time>
      </trkpt>
      <trkpt lat="45.60912" lon="4.7123">
        <ele>361</ele>
        <time>2011-06-07T18:23:07Z</time>
      </trkpt>
      <trkpt lat="45.60908" lon="4.71226">
        <ele>361</ele>
        <time>2011-06-07T18:23:09Z</time>
      </trkpt>
      <trkpt lat="45.60903" lon="4.71221">
        <ele>360.1</ele>
        <time>2011-06-07T18:23:12Z</time>
      </trkpt>
      <trkpt lat="45.60897" lon="4.71217">
        <ele>358.8</ele>
        <time>2011-06-07T18:23:15Z</time>
      </trkpt>
      <trkpt lat="45.60891" lon="4.71212">
        <ele>357.6</ele>
        <time>2011-06-07T18:23:18Z</time>
      </trkpt>
      <trkpt lat="45.60886" lon="4.71208">
        <ele>357.4</ele>
        <time>2011-06-07T18:23:20Z</time>
      </trkpt>
      <trkpt lat="45.60882" lon="4.71205">
        <ele>357.2</ele>
        <time>2011-06-07T18:23:22Z</time>
      </trkpt>
      <trkpt lat="45.60877" lon="4.71203">
        <ele>357.1</ele>
        <time>2011-06-07T18:23:24Z</time>
      </trkpt>
      <trkpt lat="45.60871" lon="4.712">
        <ele>357.2</ele>
        <time>2011-06-07T18:23:27Z</time>
      </trkpt>
      <trkpt lat="45.60866" lon="4.71196">
        <ele>357</ele>
        <time>2011-06-07T18:23:30Z</time>
      </trkpt>
      <trkpt lat="45.60861" lon="4.71192">
        <ele>357.3</ele>
        <time>2011-06-07T18:23:33Z</time>
      </trkpt>
      <trkpt lat="45.60856" lon="4.71194">
        <ele>360</ele>
        <time>2011-06-07T18:23:36Z</time>
      </trkpt>
      <trkpt lat="45.60851" lon="4.71192">
        <ele>360.9</ele>
        <time>2011-06-07T18:23:39Z</time>
      </trkpt>
      <trkpt lat="45.60846" lon="4.7119">
        <ele>361.7</ele>
        <time>2011-06-07T18:23:41Z</time>
      </trkpt>
      <trkpt lat="45.60841" lon="4.71184">
        <ele>361.8</ele>
        <time>2011-06-07T18:23:44Z</time>
      </trkpt>
      <trkpt lat="45.60835" lon="4.71178">
        <ele>361.3</ele>
        <time>2011-06-07T18:23:47Z</time>
      </trkpt>
      <trkpt lat="45.60834" lon="4.71171">
        <ele>360.6</ele>
        <time>2011-06-07T18:23:48Z</time>
      </trkpt>
      <trkpt lat="45.60832" lon="4.71163">
        <ele>359.8</ele>
        <time>2011-06-07T18:23:50Z</time>
      </trkpt>
      <trkpt lat="45.60828" lon="4.71157">
        <ele>359.1</ele>
        <time>2011-06-07T18:23:52Z</time>
      </trkpt>
      <trkpt lat="45.60824" lon="4.71153">
        <ele>358.4</ele>
        <time>2011-06-07T18:23:54Z</time>
      </trkpt>
      <trkpt lat="45.60819" lon="4.71148">
        <ele>357.4</ele>
        <time>2011-06-07T18:23:57Z</time>
      </trkpt>
      <trkpt lat="45.60816" lon="4.71143">
        <ele>356.3</ele>
        <time>2011-06-07T18:23:59Z</time>
      </trkpt>
      <trkpt lat="45.6081" lon="4.71138">
        <ele>355.5</ele>
        <time>2011-06-07T18:24:02Z</time>
      </trkpt>
      <trkpt lat="45.60806" lon="4.71132">
        <ele>354.7</ele>
        <time>2011-06-07T18:24:04Z</time>
      </trkpt>
      <trkpt lat="45.60801" lon="4.71128">
        <ele>354.6</ele>
        <time>2011-06-07T18:24:06Z</time>
      </trkpt>
      <trkpt lat="45.60796" lon="4.71122">
        <ele>353.3</ele>
        <time>2011-06-07T18:24:09Z</time>
      </trkpt>
      <trkpt lat="45.60792" lon="4.71117">
        <ele>353.3</ele>
        <time>2011-06-07T18:24:11Z</time>
      </trkpt>
      <trkpt lat="45.60788" lon="4.71111">
        <ele>351.2</ele>
        <time>2011-06-07T18:24:13Z</time>
      </trkpt>
      <trkpt lat="45.60785" lon="4.71106">
        <ele>349.9</ele>
        <time>2011-06-07T18:24:15Z</time>
      </trkpt>
      <trkpt lat="45.60782" lon="4.71101">
        <ele>349.4</ele>
        <time>2011-06-07T18:24:17Z</time>
      </trkpt>
      <trkpt lat="45.60777" lon="4.71096">
        <ele>348.9</ele>
        <time>2011-06-07T18:24:20Z</time>
      </trkpt>
      <trkpt lat="45.60772" lon="4.71092">
        <ele>348.7</ele>
        <time>2011-06-07T18:24:22Z</time>
      </trkpt>
      <trkpt lat="45.60766" lon="4.71088">
        <ele>349.4</ele>
        <time>2011-06-07T18:24:25Z</time>
      </trkpt>
      <trkpt lat="45.60765" lon="4.7108">
        <ele>349.2</ele>
        <time>2011-06-07T18:24:27Z</time>
      </trkpt>
      <trkpt lat="45.60762" lon="4.71076">
        <ele>349.3</ele>
        <time>2011-06-07T18:24:29Z</time>
      </trkpt>
      <trkpt lat="45.60758" lon="4.71069">
        <ele>349.8</ele>
        <time>2011-06-07T18:24:32Z</time>
      </trkpt>
      <trkpt lat="45.60753" lon="4.71064">
        <ele>349</ele>
        <time>2011-06-07T18:24:35Z</time>
      </trkpt>
      <trkpt lat="45.60748" lon="4.71057">
        <ele>347.6</ele>
        <time>2011-06-07T18:24:38Z</time>
      </trkpt>
      <trkpt lat="45.60744" lon="4.71051">
        <ele>347</ele>
        <time>2011-06-07T18:24:40Z</time>
      </trkpt>
      <trkpt lat="45.6074" lon="4.71046">
        <ele>346.4</ele>
        <time>2011-06-07T18:24:42Z</time>
      </trkpt>
      <trkpt lat="45.60736" lon="4.7104">
        <ele>345.9</ele>
        <time>2011-06-07T18:24:44Z</time>
      </trkpt>
      <trkpt lat="45.60733" lon="4.71033">
        <ele>345.5</ele>
        <time>2011-06-07T18:24:46Z</time>
      </trkpt>
      <trkpt lat="45.6073" lon="4.71028">
        <ele>345.7</ele>
        <time>2011-06-07T18:24:48Z</time>
      </trkpt>
      <trkpt lat="45.60726" lon="4.71022">
        <ele>347.5</ele>
        <time>2011-06-07T18:24:51Z</time>
      </trkpt>
      <trkpt lat="45.60722" lon="4.71016">
        <ele>349.4</ele>
        <time>2011-06-07T18:24:54Z</time>
      </trkpt>
      <trkpt lat="45.60719" lon="4.71009">
        <ele>351.1</ele>
        <time>2011-06-07T18:24:57Z</time>
      </trkpt>
      <trkpt lat="45.60715" lon="4.71005">
        <ele>351.1</ele>
        <time>2011-06-07T18:24:59Z</time>
      </trkpt>
      <trkpt lat="45.60712" lon="4.71">
        <ele>351.2</ele>
        <time>2011-06-07T18:25:01Z</time>
      </trkpt>
      <trkpt lat="45.60707" lon="4.70993">
        <ele>350.6</ele>
        <time>2011-06-07T18:25:04Z</time>
      </trkpt>
      <trkpt lat="45.60704" lon="4.70988">
        <ele>350.7</ele>
        <time>2011-06-07T18:25:06Z</time>
      </trkpt>
      <trkpt lat="45.607" lon="4.70984">
        <ele>350.1</ele>
        <time>2011-06-07T18:25:10Z</time>
      </trkpt>
      <trkpt lat="45.60694" lon="4.70984">
        <ele>349.4</ele>
        <time>2011-06-07T18:25:12Z</time>
      </trkpt>
      <trkpt lat="45.60687" lon="4.7098">
        <ele>350.1</ele>
        <time>2011-06-07T18:25:15Z</time>
      </trkpt>
      <trkpt lat="45.60682" lon="4.70977">
        <ele>349.6</ele>
        <time>2011-06-07T18:25:18Z</time>
      </trkpt>
      <trkpt lat="45.60677" lon="4.70973">
        <ele>349.2</ele>
        <time>2011-06-07T18:25:23Z</time>
      </trkpt>
      <trkpt lat="45.60671" lon="4.70971">
        <ele>348.4</ele>
        <time>2011-06-07T18:25:27Z</time>
      </trkpt>
      <trkpt lat="45.60665" lon="4.70969">
        <ele>348.8</ele>
        <time>2011-06-07T18:25:29Z</time>
      </trkpt>
      <trkpt lat="45.60658" lon="4.70963">
        <ele>346.2</ele>
        <time>2011-06-07T18:25:31Z</time>
      </trkpt>
      <trkpt lat="45.60658" lon="4.70953">
        <ele>345.2</ele>
        <time>2011-06-07T18:25:32Z</time>
      </trkpt>
      <trkpt lat="45.60655" lon="4.70946">
        <ele>341.4</ele>
        <time>2011-06-07T18:25:35Z</time>
      </trkpt>
      <trkpt lat="45.60655" lon="4.70937">
        <ele>339.9</ele>
        <time>2011-06-07T18:25:38Z</time>
      </trkpt>
      <trkpt lat="45.60652" lon="4.7093">
        <ele>340.3</ele>
        <time>2011-06-07T18:25:40Z</time>
      </trkpt>
      <trkpt lat="45.60651" lon="4.70924">
        <ele>343.4</ele>
        <time>2011-06-07T18:25:43Z</time>
      </trkpt>
      <trkpt lat="45.60653" lon="4.70917">
        <ele>341.7</ele>
        <time>2011-06-07T18:25:45Z</time>
      </trkpt>
      <trkpt lat="45.60655" lon="4.7091">
        <ele>340.2</ele>
        <time>2011-06-07T18:25:47Z</time>
      </trkpt>
      <trkpt lat="45.60656" lon="4.70903">
        <ele>342.4</ele>
        <time>2011-06-07T18:25:50Z</time>
      </trkpt>
      <trkpt lat="45.60655" lon="4.70894">
        <ele>342.2</ele>
        <time>2011-06-07T18:25:53Z</time>
      </trkpt>
      <trkpt lat="45.60656" lon="4.70888">
        <ele>342.4</ele>
        <time>2011-06-07T18:25:55Z</time>
      </trkpt>
      <trkpt lat="45.60658" lon="4.70881">
        <ele>341.5</ele>
        <time>2011-06-07T18:25:57Z</time>
      </trkpt>
      <trkpt lat="45.60658" lon="4.70873">
        <ele>343.1</ele>
        <time>2011-06-07T18:26:00Z</time>
      </trkpt>
      <trkpt lat="45.60661" lon="4.70866">
        <ele>341.1</ele>
        <time>2011-06-07T18:26:02Z</time>
      </trkpt>
      <trkpt lat="45.60662" lon="4.70859">
        <ele>340.6</ele>
        <time>2011-06-07T18:26:04Z</time>
      </trkpt>
      <trkpt lat="45.60664" lon="4.7085">
        <ele>339.3</ele>
        <time>2011-06-07T18:26:07Z</time>
      </trkpt>
      <trkpt lat="45.60663" lon="4.70843">
        <ele>343</ele>
        <time>2011-06-07T18:26:10Z</time>
      </trkpt>
      <trkpt lat="45.60665" lon="4.70838">
        <ele>342.5</ele>
        <time>2011-06-07T18:26:13Z</time>
      </trkpt>
      <trkpt lat="45.60668" lon="4.70832">
        <ele>342</ele>
        <time>2011-06-07T18:26:17Z</time>
      </trkpt>
      <trkpt lat="45.60672" lon="4.70829">
        <ele>341.7</ele>
        <time>2011-06-07T18:26:21Z</time>
      </trkpt>
      <trkpt lat="45.60676" lon="4.70825">
        <ele>342.8</ele>
        <time>2011-06-07T18:26:26Z</time>
      </trkpt>
    </trkseg>
  </trk>
</gpx>